<?xml version="1.0" encoding="UTF-8" standalone="no" ?>
<gpx xmlns="http://www.topografix.com/GPX/1/1" xmlns:xsi="http://www.w3.org/2001/XMLSchema-instance" xsi:schemaLocation="http://www.topografix.com/GPX/1/1 http://www.topografix.com/GPX/1/1/gpx.xsd" version="1.1" creator="VisuGPX - https://www.visugpx.com">
  <metadata>
    <name>Circuit du 23 Mai 2012</name>
    <desc><![CDATA[Un petit tour au dessus de Théoule]]></desc>
  </metadata>
  <trk>
    <name><![CDATA[ACTIVE LOG: 23 MAI 2012 08:53]]></name>
    <trkseg>
      <trkpt lat="43.52517" lon="6.91523">
        <ele>4.94</ele>
        <time>2012-05-23T06:53:45Z</time>
      </trkpt>
      <trkpt lat="43.52503" lon="6.91459">
        <ele>5.91</ele>
        <time>2012-05-23T06:53:57Z</time>
      </trkpt>
      <trkpt lat="43.52495" lon="6.91406">
        <ele>6.87</ele>
        <time>2012-05-23T06:54:07Z</time>
      </trkpt>
      <trkpt lat="43.5249" lon="6.91354">
        <ele>8.31</ele>
        <time>2012-05-23T06:54:18Z</time>
      </trkpt>
      <trkpt lat="43.52496" lon="6.91299">
        <ele>9.27</ele>
        <time>2012-05-23T06:54:28Z</time>
      </trkpt>
      <trkpt lat="43.52496" lon="6.91264">
        <ele>9.27</ele>
        <time>2012-05-23T06:54:33Z</time>
      </trkpt>
      <trkpt lat="43.5249" lon="6.91239">
        <ele>9.75</ele>
        <time>2012-05-23T06:54:38Z</time>
      </trkpt>
      <trkpt lat="43.52485" lon="6.91213">
        <ele>9.75</ele>
        <time>2012-05-23T06:54:43Z</time>
      </trkpt>
      <trkpt lat="43.5248" lon="6.91178">
        <ele>9.27</ele>
        <time>2012-05-23T06:54:49Z</time>
      </trkpt>
      <trkpt lat="43.52476" lon="6.91166">
        <ele>9.27</ele>
        <time>2012-05-23T06:54:51Z</time>
      </trkpt>
      <trkpt lat="43.52459" lon="6.91119">
        <ele>8.79</ele>
        <time>2012-05-23T06:55:02Z</time>
      </trkpt>
      <trkpt lat="43.52439" lon="6.91073">
        <ele>8.79</ele>
        <time>2012-05-23T06:55:14Z</time>
      </trkpt>
      <trkpt lat="43.52432" lon="6.91056">
        <ele>8.79</ele>
        <time>2012-05-23T06:55:20Z</time>
      </trkpt>
      <trkpt lat="43.52425" lon="6.9105">
        <ele>8.31</ele>
        <time>2012-05-23T06:55:24Z</time>
      </trkpt>
      <trkpt lat="43.52381" lon="6.91026">
        <ele>8.31</ele>
        <time>2012-05-23T06:55:41Z</time>
      </trkpt>
      <trkpt lat="43.52348" lon="6.90987">
        <ele>7.83</ele>
        <time>2012-05-23T06:55:56Z</time>
      </trkpt>
      <trkpt lat="43.52306" lon="6.90945">
        <ele>8.79</ele>
        <time>2012-05-23T06:56:14Z</time>
      </trkpt>
      <trkpt lat="43.5226" lon="6.90932">
        <ele>9.27</ele>
        <time>2012-05-23T06:56:31Z</time>
      </trkpt>
      <trkpt lat="43.52213" lon="6.9094">
        <ele>9.75</ele>
        <time>2012-05-23T06:56:47Z</time>
      </trkpt>
      <trkpt lat="43.52178" lon="6.90937">
        <ele>9.75</ele>
        <time>2012-05-23T06:56:58Z</time>
      </trkpt>
      <trkpt lat="43.52136" lon="6.90921">
        <ele>10.23</ele>
        <time>2012-05-23T06:57:13Z</time>
      </trkpt>
      <trkpt lat="43.52091" lon="6.90926">
        <ele>11.19</ele>
        <time>2012-05-23T06:57:30Z</time>
      </trkpt>
      <trkpt lat="43.52049" lon="6.9094">
        <ele>11.19</ele>
        <time>2012-05-23T06:57:45Z</time>
      </trkpt>
      <trkpt lat="43.52012" lon="6.90942">
        <ele>11.67</ele>
        <time>2012-05-23T06:57:57Z</time>
      </trkpt>
      <trkpt lat="43.51977" lon="6.90925">
        <ele>12.15</ele>
        <time>2012-05-23T06:58:10Z</time>
      </trkpt>
      <trkpt lat="43.51936" lon="6.90876">
        <ele>13.12</ele>
        <time>2012-05-23T06:58:31Z</time>
      </trkpt>
      <trkpt lat="43.5191" lon="6.90845">
        <ele>14.08</ele>
        <time>2012-05-23T06:58:45Z</time>
      </trkpt>
      <trkpt lat="43.51877" lon="6.90815">
        <ele>15.04</ele>
        <time>2012-05-23T06:59:00Z</time>
      </trkpt>
      <trkpt lat="43.51821" lon="6.90765">
        <ele>16.48</ele>
        <time>2012-05-23T06:59:23Z</time>
      </trkpt>
      <trkpt lat="43.51791" lon="6.90756">
        <ele>17.44</ele>
        <time>2012-05-23T06:59:35Z</time>
      </trkpt>
      <trkpt lat="43.51759" lon="6.90765">
        <ele>17.92</ele>
        <time>2012-05-23T06:59:49Z</time>
      </trkpt>
      <trkpt lat="43.51744" lon="6.90796">
        <ele>20.81</ele>
        <time>2012-05-23T07:00:04Z</time>
      </trkpt>
      <trkpt lat="43.51722" lon="6.90819">
        <ele>23.69</ele>
        <time>2012-05-23T07:00:18Z</time>
      </trkpt>
      <trkpt lat="43.51695" lon="6.90796">
        <ele>25.13</ele>
        <time>2012-05-23T07:00:32Z</time>
      </trkpt>
      <trkpt lat="43.51655" lon="6.90765">
        <ele>27.05</ele>
        <time>2012-05-23T07:00:52Z</time>
      </trkpt>
      <trkpt lat="43.51608" lon="6.90734">
        <ele>28.02</ele>
        <time>2012-05-23T07:01:13Z</time>
      </trkpt>
      <trkpt lat="43.51565" lon="6.90696">
        <ele>28.5</ele>
        <time>2012-05-23T07:01:33Z</time>
      </trkpt>
      <trkpt lat="43.51519" lon="6.90689">
        <ele>29.46</ele>
        <time>2012-05-23T07:01:50Z</time>
      </trkpt>
      <trkpt lat="43.51468" lon="6.90705">
        <ele>32.34</ele>
        <time>2012-05-23T07:02:10Z</time>
      </trkpt>
      <trkpt lat="43.51427" lon="6.90734">
        <ele>32.82</ele>
        <time>2012-05-23T07:02:26Z</time>
      </trkpt>
      <trkpt lat="43.51375" lon="6.90754">
        <ele>32.82</ele>
        <time>2012-05-23T07:02:46Z</time>
      </trkpt>
      <trkpt lat="43.51336" lon="6.90747">
        <ele>34.26</ele>
        <time>2012-05-23T07:03:02Z</time>
      </trkpt>
      <trkpt lat="43.51315" lon="6.90744">
        <ele>37.15</ele>
        <time>2012-05-23T07:03:14Z</time>
      </trkpt>
      <trkpt lat="43.51307" lon="6.90734">
        <ele>38.11</ele>
        <time>2012-05-23T07:03:23Z</time>
      </trkpt>
      <trkpt lat="43.51302" lon="6.90752">
        <ele>39.07</ele>
        <time>2012-05-23T07:03:32Z</time>
      </trkpt>
      <trkpt lat="43.51298" lon="6.90759">
        <ele>39.55</ele>
        <time>2012-05-23T07:03:36Z</time>
      </trkpt>
      <trkpt lat="43.51277" lon="6.90776">
        <ele>42.92</ele>
        <time>2012-05-23T07:03:52Z</time>
      </trkpt>
      <trkpt lat="43.51268" lon="6.90802">
        <ele>45.32</ele>
        <time>2012-05-23T07:04:07Z</time>
      </trkpt>
      <trkpt lat="43.51268" lon="6.90805">
        <ele>45.32</ele>
        <time>2012-05-23T07:04:09Z</time>
      </trkpt>
      <trkpt lat="43.51283" lon="6.908">
        <ele>45.8</ele>
        <time>2012-05-23T07:04:21Z</time>
      </trkpt>
      <trkpt lat="43.51285" lon="6.908">
        <ele>45.8</ele>
        <time>2012-05-23T07:04:22Z</time>
      </trkpt>
      <trkpt lat="43.51293" lon="6.90798">
        <ele>45.32</ele>
        <time>2012-05-23T07:04:30Z</time>
      </trkpt>
      <trkpt lat="43.5129" lon="6.90803">
        <ele>45.8</ele>
        <time>2012-05-23T07:04:45Z</time>
      </trkpt>
      <trkpt lat="43.5129" lon="6.90804">
        <ele>45.32</ele>
        <time>2012-05-23T07:05:03Z</time>
      </trkpt>
      <trkpt lat="43.51291" lon="6.90804">
        <ele>45.32</ele>
        <time>2012-05-23T07:05:20Z</time>
      </trkpt>
      <trkpt lat="43.51292" lon="6.90804">
        <ele>45.8</ele>
        <time>2012-05-23T07:05:35Z</time>
      </trkpt>
      <trkpt lat="43.51292" lon="6.90804">
        <ele>45.8</ele>
        <time>2012-05-23T07:05:54Z</time>
      </trkpt>
      <trkpt lat="43.51291" lon="6.90802">
        <ele>46.28</ele>
        <time>2012-05-23T07:06:20Z</time>
      </trkpt>
      <trkpt lat="43.51292" lon="6.90802">
        <ele>46.28</ele>
        <time>2012-05-23T07:06:50Z</time>
      </trkpt>
      <trkpt lat="43.5129" lon="6.90806">
        <ele>46.28</ele>
        <time>2012-05-23T07:07:27Z</time>
      </trkpt>
      <trkpt lat="43.51289" lon="6.90807">
        <ele>46.76</ele>
        <time>2012-05-23T07:07:44Z</time>
      </trkpt>
      <trkpt lat="43.5129" lon="6.90807">
        <ele>46.28</ele>
        <time>2012-05-23T07:08:04Z</time>
      </trkpt>
      <trkpt lat="43.51289" lon="6.90806">
        <ele>46.28</ele>
        <time>2012-05-23T07:08:22Z</time>
      </trkpt>
      <trkpt lat="43.51286" lon="6.90802">
        <ele>46.28</ele>
        <time>2012-05-23T07:08:27Z</time>
      </trkpt>
      <trkpt lat="43.51269" lon="6.90808">
        <ele>46.76</ele>
        <time>2012-05-23T07:08:37Z</time>
      </trkpt>
      <trkpt lat="43.51263" lon="6.90848">
        <ele>49.65</ele>
        <time>2012-05-23T07:08:53Z</time>
      </trkpt>
      <trkpt lat="43.51263" lon="6.90878">
        <ele>53.01</ele>
        <time>2012-05-23T07:09:04Z</time>
      </trkpt>
      <trkpt lat="43.51269" lon="6.90913">
        <ele>55.89</ele>
        <time>2012-05-23T07:09:17Z</time>
      </trkpt>
      <trkpt lat="43.51285" lon="6.90938">
        <ele>59.26</ele>
        <time>2012-05-23T07:09:28Z</time>
      </trkpt>
      <trkpt lat="43.51306" lon="6.90966">
        <ele>62.62</ele>
        <time>2012-05-23T07:09:42Z</time>
      </trkpt>
      <trkpt lat="43.51319" lon="6.90993">
        <ele>65.99</ele>
        <time>2012-05-23T07:09:53Z</time>
      </trkpt>
      <trkpt lat="43.51327" lon="6.9102">
        <ele>68.87</ele>
        <time>2012-05-23T07:10:04Z</time>
      </trkpt>
      <trkpt lat="43.51336" lon="6.91055">
        <ele>72.24</ele>
        <time>2012-05-23T07:10:19Z</time>
      </trkpt>
      <trkpt lat="43.51352" lon="6.91087">
        <ele>75.6</ele>
        <time>2012-05-23T07:10:35Z</time>
      </trkpt>
      <trkpt lat="43.5136" lon="6.9112">
        <ele>78.48</ele>
        <time>2012-05-23T07:10:50Z</time>
      </trkpt>
      <trkpt lat="43.51345" lon="6.9117">
        <ele>81.37</ele>
        <time>2012-05-23T07:11:12Z</time>
      </trkpt>
      <trkpt lat="43.51334" lon="6.91207">
        <ele>82.33</ele>
        <time>2012-05-23T07:11:32Z</time>
      </trkpt>
      <trkpt lat="43.51332" lon="6.91239">
        <ele>83.29</ele>
        <time>2012-05-23T07:11:51Z</time>
      </trkpt>
      <trkpt lat="43.51334" lon="6.91244">
        <ele>83.29</ele>
        <time>2012-05-23T07:11:54Z</time>
      </trkpt>
      <trkpt lat="43.51337" lon="6.91249">
        <ele>83.29</ele>
        <time>2012-05-23T07:11:59Z</time>
      </trkpt>
      <trkpt lat="43.51344" lon="6.91246">
        <ele>83.77</ele>
        <time>2012-05-23T07:12:05Z</time>
      </trkpt>
      <trkpt lat="43.51344" lon="6.9124">
        <ele>83.77</ele>
        <time>2012-05-23T07:12:09Z</time>
      </trkpt>
      <trkpt lat="43.51339" lon="6.91233">
        <ele>83.77</ele>
        <time>2012-05-23T07:12:12Z</time>
      </trkpt>
      <trkpt lat="43.51331" lon="6.91233">
        <ele>82.81</ele>
        <time>2012-05-23T07:12:19Z</time>
      </trkpt>
      <trkpt lat="43.51332" lon="6.91243">
        <ele>83.29</ele>
        <time>2012-05-23T07:12:24Z</time>
      </trkpt>
      <trkpt lat="43.51335" lon="6.91247">
        <ele>83.77</ele>
        <time>2012-05-23T07:12:27Z</time>
      </trkpt>
      <trkpt lat="43.51336" lon="6.91244">
        <ele>83.29</ele>
        <time>2012-05-23T07:12:37Z</time>
      </trkpt>
      <trkpt lat="43.51332" lon="6.9125">
        <ele>83.29</ele>
        <time>2012-05-23T07:12:46Z</time>
      </trkpt>
      <trkpt lat="43.51331" lon="6.91254">
        <ele>83.29</ele>
        <time>2012-05-23T07:12:48Z</time>
      </trkpt>
      <trkpt lat="43.51324" lon="6.91324">
        <ele>80.41</ele>
        <time>2012-05-23T07:13:01Z</time>
      </trkpt>
      <trkpt lat="43.51323" lon="6.91366">
        <ele>78</ele>
        <time>2012-05-23T07:13:04Z</time>
      </trkpt>
      <trkpt lat="43.51325" lon="6.91386">
        <ele>77.04</ele>
        <time>2012-05-23T07:13:06Z</time>
      </trkpt>
      <trkpt lat="43.51327" lon="6.91404">
        <ele>74.64</ele>
        <time>2012-05-23T07:13:08Z</time>
      </trkpt>
      <trkpt lat="43.51339" lon="6.91441">
        <ele>70.31</ele>
        <time>2012-05-23T07:13:13Z</time>
      </trkpt>
      <trkpt lat="43.51344" lon="6.91471">
        <ele>67.43</ele>
        <time>2012-05-23T07:13:20Z</time>
      </trkpt>
      <trkpt lat="43.51346" lon="6.91479">
        <ele>66.95</ele>
        <time>2012-05-23T07:13:24Z</time>
      </trkpt>
      <trkpt lat="43.51348" lon="6.9148">
        <ele>65.99</ele>
        <time>2012-05-23T07:13:41Z</time>
      </trkpt>
      <trkpt lat="43.51348" lon="6.9148">
        <ele>65.99</ele>
        <time>2012-05-23T07:13:42Z</time>
      </trkpt>
      <trkpt lat="43.51344" lon="6.91465">
        <ele>66.47</ele>
        <time>2012-05-23T07:13:49Z</time>
      </trkpt>
      <trkpt lat="43.51335" lon="6.91432">
        <ele>69.83</ele>
        <time>2012-05-23T07:14:01Z</time>
      </trkpt>
      <trkpt lat="43.51328" lon="6.91402">
        <ele>72.72</ele>
        <time>2012-05-23T07:14:11Z</time>
      </trkpt>
      <trkpt lat="43.51325" lon="6.91368">
        <ele>76.08</ele>
        <time>2012-05-23T07:14:22Z</time>
      </trkpt>
      <trkpt lat="43.51325" lon="6.9133">
        <ele>79.45</ele>
        <time>2012-05-23T07:14:34Z</time>
      </trkpt>
      <trkpt lat="43.51327" lon="6.91277">
        <ele>82.33</ele>
        <time>2012-05-23T07:14:49Z</time>
      </trkpt>
      <trkpt lat="43.51332" lon="6.91212">
        <ele>84.25</ele>
        <time>2012-05-23T07:15:07Z</time>
      </trkpt>
      <trkpt lat="43.51337" lon="6.91186">
        <ele>83.77</ele>
        <time>2012-05-23T07:15:12Z</time>
      </trkpt>
      <trkpt lat="43.51356" lon="6.91136">
        <ele>82.33</ele>
        <time>2012-05-23T07:15:21Z</time>
      </trkpt>
      <trkpt lat="43.51353" lon="6.91085">
        <ele>78.97</ele>
        <time>2012-05-23T07:15:27Z</time>
      </trkpt>
      <trkpt lat="43.51339" lon="6.91064">
        <ele>76.56</ele>
        <time>2012-05-23T07:15:30Z</time>
      </trkpt>
      <trkpt lat="43.51327" lon="6.91032">
        <ele>73.2</ele>
        <time>2012-05-23T07:15:34Z</time>
      </trkpt>
      <trkpt lat="43.51322" lon="6.91001">
        <ele>71.76</ele>
        <time>2012-05-23T07:15:37Z</time>
      </trkpt>
      <trkpt lat="43.51307" lon="6.90964">
        <ele>66.95</ele>
        <time>2012-05-23T07:15:41Z</time>
      </trkpt>
      <trkpt lat="43.51301" lon="6.90956">
        <ele>65.99</ele>
        <time>2012-05-23T07:15:42Z</time>
      </trkpt>
      <trkpt lat="43.51283" lon="6.90934">
        <ele>63.58</ele>
        <time>2012-05-23T07:15:45Z</time>
      </trkpt>
      <trkpt lat="43.51278" lon="6.90927">
        <ele>62.62</ele>
        <time>2012-05-23T07:15:46Z</time>
      </trkpt>
      <trkpt lat="43.51262" lon="6.90886">
        <ele>58.3</ele>
        <time>2012-05-23T07:15:50Z</time>
      </trkpt>
      <trkpt lat="43.51262" lon="6.90873">
        <ele>57.34</ele>
        <time>2012-05-23T07:15:51Z</time>
      </trkpt>
      <trkpt lat="43.51262" lon="6.90853">
        <ele>54.45</ele>
        <time>2012-05-23T07:15:53Z</time>
      </trkpt>
      <trkpt lat="43.51266" lon="6.90822">
        <ele>52.05</ele>
        <time>2012-05-23T07:15:58Z</time>
      </trkpt>
      <trkpt lat="43.51257" lon="6.90825">
        <ele>50.13</ele>
        <time>2012-05-23T07:16:04Z</time>
      </trkpt>
      <trkpt lat="43.51255" lon="6.90838">
        <ele>49.16</ele>
        <time>2012-05-23T07:16:07Z</time>
      </trkpt>
      <trkpt lat="43.51248" lon="6.90861">
        <ele>49.65</ele>
        <time>2012-05-23T07:16:19Z</time>
      </trkpt>
      <trkpt lat="43.51237" lon="6.90861">
        <ele>49.65</ele>
        <time>2012-05-23T07:16:24Z</time>
      </trkpt>
      <trkpt lat="43.51198" lon="6.9087">
        <ele>51.57</ele>
        <time>2012-05-23T07:16:43Z</time>
      </trkpt>
      <trkpt lat="43.51159" lon="6.909">
        <ele>53.49</ele>
        <time>2012-05-23T07:17:00Z</time>
      </trkpt>
      <trkpt lat="43.51116" lon="6.90936">
        <ele>54.93</ele>
        <time>2012-05-23T07:17:20Z</time>
      </trkpt>
      <trkpt lat="43.51096" lon="6.90978">
        <ele>53.97</ele>
        <time>2012-05-23T07:17:32Z</time>
      </trkpt>
      <trkpt lat="43.51057" lon="6.90982">
        <ele>55.89</ele>
        <time>2012-05-23T07:17:48Z</time>
      </trkpt>
      <trkpt lat="43.51026" lon="6.91011">
        <ele>58.78</ele>
        <time>2012-05-23T07:18:05Z</time>
      </trkpt>
      <trkpt lat="43.51017" lon="6.9104">
        <ele>58.78</ele>
        <time>2012-05-23T07:18:15Z</time>
      </trkpt>
      <trkpt lat="43.51002" lon="6.9107">
        <ele>57.34</ele>
        <time>2012-05-23T07:18:22Z</time>
      </trkpt>
      <trkpt lat="43.50997" lon="6.91066">
        <ele>57.34</ele>
        <time>2012-05-23T07:18:24Z</time>
      </trkpt>
      <trkpt lat="43.5098" lon="6.91066">
        <ele>60.22</ele>
        <time>2012-05-23T07:18:33Z</time>
      </trkpt>
      <trkpt lat="43.50955" lon="6.91078">
        <ele>62.14</ele>
        <time>2012-05-23T07:18:47Z</time>
      </trkpt>
      <trkpt lat="43.50939" lon="6.9107">
        <ele>63.58</ele>
        <time>2012-05-23T07:18:57Z</time>
      </trkpt>
      <trkpt lat="43.50914" lon="6.91066">
        <ele>65.03</ele>
        <time>2012-05-23T07:19:14Z</time>
      </trkpt>
      <trkpt lat="43.50884" lon="6.91064">
        <ele>64.07</ele>
        <time>2012-05-23T07:19:25Z</time>
      </trkpt>
      <trkpt lat="43.50851" lon="6.91072">
        <ele>64.07</ele>
        <time>2012-05-23T07:19:42Z</time>
      </trkpt>
      <trkpt lat="43.50846" lon="6.91072">
        <ele>64.55</ele>
        <time>2012-05-23T07:19:57Z</time>
      </trkpt>
      <trkpt lat="43.50845" lon="6.91072">
        <ele>65.03</ele>
        <time>2012-05-23T07:22:18Z</time>
      </trkpt>
      <trkpt lat="43.50845" lon="6.91072">
        <ele>65.51</ele>
        <time>2012-05-23T07:22:57Z</time>
      </trkpt>
      <trkpt lat="43.50817" lon="6.9108">
        <ele>66.47</ele>
        <time>2012-05-23T07:23:15Z</time>
      </trkpt>
      <trkpt lat="43.50784" lon="6.9109">
        <ele>68.39</ele>
        <time>2012-05-23T07:23:32Z</time>
      </trkpt>
      <trkpt lat="43.50738" lon="6.91105">
        <ele>70.79</ele>
        <time>2012-05-23T07:23:53Z</time>
      </trkpt>
      <trkpt lat="43.50704" lon="6.91114">
        <ele>73.68</ele>
        <time>2012-05-23T07:24:09Z</time>
      </trkpt>
      <trkpt lat="43.50665" lon="6.91119">
        <ele>76.56</ele>
        <time>2012-05-23T07:24:29Z</time>
      </trkpt>
      <trkpt lat="43.5064" lon="6.91115">
        <ele>78.48</ele>
        <time>2012-05-23T07:24:44Z</time>
      </trkpt>
      <trkpt lat="43.50601" lon="6.91115">
        <ele>81.37</ele>
        <time>2012-05-23T07:25:06Z</time>
      </trkpt>
      <trkpt lat="43.50564" lon="6.91121">
        <ele>84.25</ele>
        <time>2012-05-23T07:25:28Z</time>
      </trkpt>
      <trkpt lat="43.50533" lon="6.91125">
        <ele>87.62</ele>
        <time>2012-05-23T07:25:47Z</time>
      </trkpt>
      <trkpt lat="43.50515" lon="6.91151">
        <ele>90.02</ele>
        <time>2012-05-23T07:26:04Z</time>
      </trkpt>
      <trkpt lat="43.505" lon="6.91142">
        <ele>92.42</ele>
        <time>2012-05-23T07:26:15Z</time>
      </trkpt>
      <trkpt lat="43.50496" lon="6.91135">
        <ele>92.42</ele>
        <time>2012-05-23T07:26:19Z</time>
      </trkpt>
      <trkpt lat="43.50461" lon="6.91117">
        <ele>95.79</ele>
        <time>2012-05-23T07:26:41Z</time>
      </trkpt>
      <trkpt lat="43.50427" lon="6.91093">
        <ele>97.23</ele>
        <time>2012-05-23T07:27:03Z</time>
      </trkpt>
      <trkpt lat="43.50397" lon="6.91081">
        <ele>99.15</ele>
        <time>2012-05-23T07:27:19Z</time>
      </trkpt>
      <trkpt lat="43.50363" lon="6.91076">
        <ele>102.04</ele>
        <time>2012-05-23T07:27:37Z</time>
      </trkpt>
      <trkpt lat="43.50325" lon="6.91076">
        <ele>103.96</ele>
        <time>2012-05-23T07:27:59Z</time>
      </trkpt>
      <trkpt lat="43.50279" lon="6.9107">
        <ele>106.36</ele>
        <time>2012-05-23T07:28:24Z</time>
      </trkpt>
      <trkpt lat="43.50242" lon="6.91072">
        <ele>108.77</ele>
        <time>2012-05-23T07:28:43Z</time>
      </trkpt>
      <trkpt lat="43.50208" lon="6.91095">
        <ele>110.69</ele>
        <time>2012-05-23T07:29:03Z</time>
      </trkpt>
      <trkpt lat="43.50187" lon="6.91129">
        <ele>113.09</ele>
        <time>2012-05-23T07:29:20Z</time>
      </trkpt>
      <trkpt lat="43.50162" lon="6.91165">
        <ele>115.01</ele>
        <time>2012-05-23T07:29:39Z</time>
      </trkpt>
      <trkpt lat="43.50136" lon="6.91201">
        <ele>117.42</ele>
        <time>2012-05-23T07:30:00Z</time>
      </trkpt>
      <trkpt lat="43.5012" lon="6.91243">
        <ele>119.82</ele>
        <time>2012-05-23T07:30:20Z</time>
      </trkpt>
      <trkpt lat="43.50098" lon="6.91248">
        <ele>121.26</ele>
        <time>2012-05-23T07:30:33Z</time>
      </trkpt>
      <trkpt lat="43.50086" lon="6.91245">
        <ele>122.71</ele>
        <time>2012-05-23T07:30:41Z</time>
      </trkpt>
      <trkpt lat="43.5008" lon="6.91231">
        <ele>124.15</ele>
        <time>2012-05-23T07:30:49Z</time>
      </trkpt>
      <trkpt lat="43.50094" lon="6.91201">
        <ele>126.55</ele>
        <time>2012-05-23T07:31:06Z</time>
      </trkpt>
      <trkpt lat="43.50084" lon="6.91179">
        <ele>127.99</ele>
        <time>2012-05-23T07:31:22Z</time>
      </trkpt>
      <trkpt lat="43.50078" lon="6.91145">
        <ele>130.4</ele>
        <time>2012-05-23T07:31:39Z</time>
      </trkpt>
      <trkpt lat="43.50065" lon="6.91111">
        <ele>133.28</ele>
        <time>2012-05-23T07:32:01Z</time>
      </trkpt>
      <trkpt lat="43.50048" lon="6.91092">
        <ele>136.16</ele>
        <time>2012-05-23T07:32:18Z</time>
      </trkpt>
      <trkpt lat="43.50045" lon="6.91085">
        <ele>136.16</ele>
        <time>2012-05-23T07:32:22Z</time>
      </trkpt>
      <trkpt lat="43.50052" lon="6.91045">
        <ele>138.57</ele>
        <time>2012-05-23T07:32:42Z</time>
      </trkpt>
      <trkpt lat="43.50061" lon="6.91009">
        <ele>140.97</ele>
        <time>2012-05-23T07:33:01Z</time>
      </trkpt>
      <trkpt lat="43.50056" lon="6.90984">
        <ele>142.89</ele>
        <time>2012-05-23T07:33:17Z</time>
      </trkpt>
      <trkpt lat="43.50034" lon="6.90973">
        <ele>145.3</ele>
        <time>2012-05-23T07:33:36Z</time>
      </trkpt>
      <trkpt lat="43.50018" lon="6.90983">
        <ele>147.22</ele>
        <time>2012-05-23T07:33:49Z</time>
      </trkpt>
      <trkpt lat="43.49996" lon="6.91004">
        <ele>149.62</ele>
        <time>2012-05-23T07:34:09Z</time>
      </trkpt>
      <trkpt lat="43.49973" lon="6.91035">
        <ele>152.03</ele>
        <time>2012-05-23T07:34:31Z</time>
      </trkpt>
      <trkpt lat="43.49953" lon="6.91058">
        <ele>154.43</ele>
        <time>2012-05-23T07:34:50Z</time>
      </trkpt>
      <trkpt lat="43.49925" lon="6.9108">
        <ele>156.83</ele>
        <time>2012-05-23T07:35:12Z</time>
      </trkpt>
      <trkpt lat="43.49902" lon="6.91087">
        <ele>159.72</ele>
        <time>2012-05-23T07:35:28Z</time>
      </trkpt>
      <trkpt lat="43.4988" lon="6.91091">
        <ele>163.08</ele>
        <time>2012-05-23T07:35:43Z</time>
      </trkpt>
      <trkpt lat="43.49854" lon="6.91094">
        <ele>165.96</ele>
        <time>2012-05-23T07:36:02Z</time>
      </trkpt>
      <trkpt lat="43.4984" lon="6.91097">
        <ele>167.89</ele>
        <time>2012-05-23T07:36:13Z</time>
      </trkpt>
      <trkpt lat="43.49833" lon="6.91092">
        <ele>168.37</ele>
        <time>2012-05-23T07:36:18Z</time>
      </trkpt>
      <trkpt lat="43.49831" lon="6.91084">
        <ele>168.85</ele>
        <time>2012-05-23T07:36:22Z</time>
      </trkpt>
      <trkpt lat="43.49828" lon="6.9105">
        <ele>171.73</ele>
        <time>2012-05-23T07:36:41Z</time>
      </trkpt>
      <trkpt lat="43.49817" lon="6.9103">
        <ele>174.14</ele>
        <time>2012-05-23T07:36:55Z</time>
      </trkpt>
      <trkpt lat="43.49818" lon="6.91022">
        <ele>174.14</ele>
        <time>2012-05-23T07:36:58Z</time>
      </trkpt>
      <trkpt lat="43.49823" lon="6.90989">
        <ele>176.54</ele>
        <time>2012-05-23T07:37:15Z</time>
      </trkpt>
      <trkpt lat="43.49829" lon="6.90961">
        <ele>179.42</ele>
        <time>2012-05-23T07:37:29Z</time>
      </trkpt>
      <trkpt lat="43.49831" lon="6.90939">
        <ele>182.79</ele>
        <time>2012-05-23T07:37:42Z</time>
      </trkpt>
      <trkpt lat="43.49838" lon="6.90912">
        <ele>185.67</ele>
        <time>2012-05-23T07:38:00Z</time>
      </trkpt>
      <trkpt lat="43.49839" lon="6.90911">
        <ele>185.67</ele>
        <time>2012-05-23T07:38:01Z</time>
      </trkpt>
      <trkpt lat="43.49838" lon="6.90906">
        <ele>186.63</ele>
        <time>2012-05-23T07:38:06Z</time>
      </trkpt>
      <trkpt lat="43.49833" lon="6.90907">
        <ele>187.11</ele>
        <time>2012-05-23T07:38:11Z</time>
      </trkpt>
      <trkpt lat="43.49831" lon="6.90909">
        <ele>187.11</ele>
        <time>2012-05-23T07:38:13Z</time>
      </trkpt>
      <trkpt lat="43.49841" lon="6.90912">
        <ele>186.15</ele>
        <time>2012-05-23T07:38:23Z</time>
      </trkpt>
      <trkpt lat="43.49841" lon="6.9091">
        <ele>186.15</ele>
        <time>2012-05-23T07:38:24Z</time>
      </trkpt>
      <trkpt lat="43.49841" lon="6.90907">
        <ele>186.15</ele>
        <time>2012-05-23T07:38:26Z</time>
      </trkpt>
      <trkpt lat="43.49839" lon="6.90905">
        <ele>186.63</ele>
        <time>2012-05-23T07:38:28Z</time>
      </trkpt>
      <trkpt lat="43.49836" lon="6.90905">
        <ele>186.63</ele>
        <time>2012-05-23T07:38:31Z</time>
      </trkpt>
      <trkpt lat="43.49834" lon="6.90907">
        <ele>186.63</ele>
        <time>2012-05-23T07:38:33Z</time>
      </trkpt>
      <trkpt lat="43.49832" lon="6.90909">
        <ele>187.11</ele>
        <time>2012-05-23T07:38:35Z</time>
      </trkpt>
      <trkpt lat="43.49839" lon="6.90915">
        <ele>186.63</ele>
        <time>2012-05-23T07:38:43Z</time>
      </trkpt>
      <trkpt lat="43.49838" lon="6.90905">
        <ele>186.63</ele>
        <time>2012-05-23T07:38:50Z</time>
      </trkpt>
      <trkpt lat="43.49824" lon="6.90908">
        <ele>187.59</ele>
        <time>2012-05-23T07:39:04Z</time>
      </trkpt>
      <trkpt lat="43.49804" lon="6.90894">
        <ele>190</ele>
        <time>2012-05-23T07:39:23Z</time>
      </trkpt>
      <trkpt lat="43.49776" lon="6.90876">
        <ele>191.44</ele>
        <time>2012-05-23T07:39:43Z</time>
      </trkpt>
      <trkpt lat="43.49762" lon="6.90844">
        <ele>193.84</ele>
        <time>2012-05-23T07:40:02Z</time>
      </trkpt>
      <trkpt lat="43.49762" lon="6.90829">
        <ele>194.32</ele>
        <time>2012-05-23T07:40:10Z</time>
      </trkpt>
      <trkpt lat="43.49762" lon="6.90817">
        <ele>195.28</ele>
        <time>2012-05-23T07:40:17Z</time>
      </trkpt>
      <trkpt lat="43.49747" lon="6.90784">
        <ele>198.17</ele>
        <time>2012-05-23T07:40:38Z</time>
      </trkpt>
      <trkpt lat="43.49733" lon="6.90759">
        <ele>200.57</ele>
        <time>2012-05-23T07:40:55Z</time>
      </trkpt>
      <trkpt lat="43.49719" lon="6.90731">
        <ele>202.98</ele>
        <time>2012-05-23T07:41:14Z</time>
      </trkpt>
      <trkpt lat="43.49702" lon="6.90705">
        <ele>205.38</ele>
        <time>2012-05-23T07:41:32Z</time>
      </trkpt>
      <trkpt lat="43.49682" lon="6.90689">
        <ele>207.3</ele>
        <time>2012-05-23T07:41:49Z</time>
      </trkpt>
      <trkpt lat="43.49664" lon="6.90664">
        <ele>209.7</ele>
        <time>2012-05-23T07:42:08Z</time>
      </trkpt>
      <trkpt lat="43.49642" lon="6.90647">
        <ele>213.07</ele>
        <time>2012-05-23T07:42:25Z</time>
      </trkpt>
      <trkpt lat="43.49622" lon="6.90627">
        <ele>214.99</ele>
        <time>2012-05-23T07:42:44Z</time>
      </trkpt>
      <trkpt lat="43.4961" lon="6.90611">
        <ele>215.95</ele>
        <time>2012-05-23T07:42:57Z</time>
      </trkpt>
      <trkpt lat="43.49606" lon="6.90605">
        <ele>216.91</ele>
        <time>2012-05-23T07:43:02Z</time>
      </trkpt>
      <trkpt lat="43.49585" lon="6.90575">
        <ele>218.36</ele>
        <time>2012-05-23T07:43:24Z</time>
      </trkpt>
      <trkpt lat="43.49562" lon="6.9058">
        <ele>219.8</ele>
        <time>2012-05-23T07:43:42Z</time>
      </trkpt>
      <trkpt lat="43.49543" lon="6.90569">
        <ele>222.68</ele>
        <time>2012-05-23T07:43:58Z</time>
      </trkpt>
      <trkpt lat="43.4953" lon="6.90562">
        <ele>224.12</ele>
        <time>2012-05-23T07:44:08Z</time>
      </trkpt>
      <trkpt lat="43.49526" lon="6.90552">
        <ele>225.57</ele>
        <time>2012-05-23T07:44:15Z</time>
      </trkpt>
      <trkpt lat="43.49531" lon="6.90517">
        <ele>228.93</ele>
        <time>2012-05-23T07:44:34Z</time>
      </trkpt>
      <trkpt lat="43.49522" lon="6.9049">
        <ele>230.85</ele>
        <time>2012-05-23T07:44:49Z</time>
      </trkpt>
      <trkpt lat="43.49525" lon="6.9046">
        <ele>232.78</ele>
        <time>2012-05-23T07:45:04Z</time>
      </trkpt>
      <trkpt lat="43.49515" lon="6.90426">
        <ele>235.66</ele>
        <time>2012-05-23T07:45:24Z</time>
      </trkpt>
      <trkpt lat="43.49506" lon="6.904">
        <ele>238.06</ele>
        <time>2012-05-23T07:45:41Z</time>
      </trkpt>
      <trkpt lat="43.49506" lon="6.90399">
        <ele>238.54</ele>
        <time>2012-05-23T07:45:42Z</time>
      </trkpt>
      <trkpt lat="43.49504" lon="6.90396">
        <ele>238.54</ele>
        <time>2012-05-23T07:45:44Z</time>
      </trkpt>
      <trkpt lat="43.49501" lon="6.90392">
        <ele>239.51</ele>
        <time>2012-05-23T07:45:57Z</time>
      </trkpt>
      <trkpt lat="43.49507" lon="6.90393">
        <ele>239.02</ele>
        <time>2012-05-23T07:46:09Z</time>
      </trkpt>
      <trkpt lat="43.49502" lon="6.90391">
        <ele>239.99</ele>
        <time>2012-05-23T07:46:42Z</time>
      </trkpt>
      <trkpt lat="43.49504" lon="6.90398">
        <ele>239.51</ele>
        <time>2012-05-23T07:46:53Z</time>
      </trkpt>
      <trkpt lat="43.49506" lon="6.90418">
        <ele>239.99</ele>
        <time>2012-05-23T07:47:12Z</time>
      </trkpt>
      <trkpt lat="43.49504" lon="6.90418">
        <ele>239.99</ele>
        <time>2012-05-23T07:47:35Z</time>
      </trkpt>
      <trkpt lat="43.49503" lon="6.9042">
        <ele>240.47</ele>
        <time>2012-05-23T07:48:47Z</time>
      </trkpt>
      <trkpt lat="43.49501" lon="6.90421">
        <ele>240.47</ele>
        <time>2012-05-23T07:49:11Z</time>
      </trkpt>
      <trkpt lat="43.49502" lon="6.90424">
        <ele>240.47</ele>
        <time>2012-05-23T07:49:21Z</time>
      </trkpt>
      <trkpt lat="43.49503" lon="6.90422">
        <ele>240.47</ele>
        <time>2012-05-23T07:49:33Z</time>
      </trkpt>
      <trkpt lat="43.49503" lon="6.90418">
        <ele>239.99</ele>
        <time>2012-05-23T07:49:45Z</time>
      </trkpt>
      <trkpt lat="43.49502" lon="6.90419">
        <ele>239.99</ele>
        <time>2012-05-23T07:50:12Z</time>
      </trkpt>
      <trkpt lat="43.49504" lon="6.90416">
        <ele>240.47</ele>
        <time>2012-05-23T07:50:29Z</time>
      </trkpt>
      <trkpt lat="43.49504" lon="6.90408">
        <ele>240.47</ele>
        <time>2012-05-23T07:50:37Z</time>
      </trkpt>
      <trkpt lat="43.495" lon="6.90391">
        <ele>240.47</ele>
        <time>2012-05-23T07:50:53Z</time>
      </trkpt>
      <trkpt lat="43.49503" lon="6.90393">
        <ele>240.95</ele>
        <time>2012-05-23T07:51:12Z</time>
      </trkpt>
      <trkpt lat="43.49503" lon="6.90393">
        <ele>240.95</ele>
        <time>2012-05-23T07:51:55Z</time>
      </trkpt>
      <trkpt lat="43.49503" lon="6.90393">
        <ele>240.95</ele>
        <time>2012-05-23T07:52:12Z</time>
      </trkpt>
      <trkpt lat="43.49503" lon="6.90404">
        <ele>241.43</ele>
        <time>2012-05-23T07:52:20Z</time>
      </trkpt>
      <trkpt lat="43.49504" lon="6.90419">
        <ele>241.43</ele>
        <time>2012-05-23T07:52:31Z</time>
      </trkpt>
      <trkpt lat="43.49508" lon="6.90442">
        <ele>241.43</ele>
        <time>2012-05-23T07:52:45Z</time>
      </trkpt>
      <trkpt lat="43.49507" lon="6.90479">
        <ele>241.91</ele>
        <time>2012-05-23T07:53:01Z</time>
      </trkpt>
      <trkpt lat="43.49505" lon="6.90524">
        <ele>242.39</ele>
        <time>2012-05-23T07:53:18Z</time>
      </trkpt>
      <trkpt lat="43.49504" lon="6.90566">
        <ele>242.87</ele>
        <time>2012-05-23T07:53:33Z</time>
      </trkpt>
      <trkpt lat="43.49506" lon="6.9058">
        <ele>242.87</ele>
        <time>2012-05-23T07:53:38Z</time>
      </trkpt>
      <trkpt lat="43.4953" lon="6.90619">
        <ele>242.39</ele>
        <time>2012-05-23T07:53:52Z</time>
      </trkpt>
      <trkpt lat="43.49541" lon="6.90628">
        <ele>242.87</ele>
        <time>2012-05-23T07:53:57Z</time>
      </trkpt>
      <trkpt lat="43.49573" lon="6.90646">
        <ele>243.83</ele>
        <time>2012-05-23T07:54:12Z</time>
      </trkpt>
      <trkpt lat="43.49606" lon="6.90694">
        <ele>244.31</ele>
        <time>2012-05-23T07:54:28Z</time>
      </trkpt>
      <trkpt lat="43.4964" lon="6.90732">
        <ele>245.27</ele>
        <time>2012-05-23T07:54:43Z</time>
      </trkpt>
      <trkpt lat="43.49666" lon="6.90773">
        <ele>245.27</ele>
        <time>2012-05-23T07:54:55Z</time>
      </trkpt>
      <trkpt lat="43.49685" lon="6.90841">
        <ele>245.27</ele>
        <time>2012-05-23T07:55:11Z</time>
      </trkpt>
      <trkpt lat="43.49695" lon="6.90902">
        <ele>245.27</ele>
        <time>2012-05-23T07:55:25Z</time>
      </trkpt>
      <trkpt lat="43.49702" lon="6.90943">
        <ele>245.75</ele>
        <time>2012-05-23T07:55:39Z</time>
      </trkpt>
      <trkpt lat="43.49694" lon="6.9098">
        <ele>246.23</ele>
        <time>2012-05-23T07:55:51Z</time>
      </trkpt>
      <trkpt lat="43.49676" lon="6.91029">
        <ele>246.23</ele>
        <time>2012-05-23T07:56:05Z</time>
      </trkpt>
      <trkpt lat="43.49684" lon="6.9105">
        <ele>245.75</ele>
        <time>2012-05-23T07:56:14Z</time>
      </trkpt>
      <trkpt lat="43.49683" lon="6.9105">
        <ele>245.75</ele>
        <time>2012-05-23T07:56:29Z</time>
      </trkpt>
      <trkpt lat="43.49685" lon="6.9105">
        <ele>245.75</ele>
        <time>2012-05-23T07:56:41Z</time>
      </trkpt>
      <trkpt lat="43.49684" lon="6.91042">
        <ele>245.75</ele>
        <time>2012-05-23T07:56:59Z</time>
      </trkpt>
      <trkpt lat="43.49683" lon="6.9104">
        <ele>246.23</ele>
        <time>2012-05-23T07:57:47Z</time>
      </trkpt>
      <trkpt lat="43.49684" lon="6.91043">
        <ele>246.72</ele>
        <time>2012-05-23T07:58:40Z</time>
      </trkpt>
      <trkpt lat="43.49688" lon="6.91055">
        <ele>246.23</ele>
        <time>2012-05-23T07:59:11Z</time>
      </trkpt>
      <trkpt lat="43.49694" lon="6.91068">
        <ele>246.23</ele>
        <time>2012-05-23T07:59:30Z</time>
      </trkpt>
      <trkpt lat="43.49692" lon="6.91055">
        <ele>245.75</ele>
        <time>2012-05-23T08:00:04Z</time>
      </trkpt>
      <trkpt lat="43.49685" lon="6.91046">
        <ele>246.23</ele>
        <time>2012-05-23T08:00:20Z</time>
      </trkpt>
      <trkpt lat="43.49683" lon="6.91043">
        <ele>246.23</ele>
        <time>2012-05-23T08:00:39Z</time>
      </trkpt>
      <trkpt lat="43.49684" lon="6.91044">
        <ele>246.72</ele>
        <time>2012-05-23T08:01:14Z</time>
      </trkpt>
      <trkpt lat="43.49686" lon="6.91048">
        <ele>246.72</ele>
        <time>2012-05-23T08:01:30Z</time>
      </trkpt>
      <trkpt lat="43.49692" lon="6.91064">
        <ele>246.72</ele>
        <time>2012-05-23T08:01:54Z</time>
      </trkpt>
      <trkpt lat="43.49698" lon="6.91112">
        <ele>246.23</ele>
        <time>2012-05-23T08:02:09Z</time>
      </trkpt>
      <trkpt lat="43.49712" lon="6.91197">
        <ele>245.75</ele>
        <time>2012-05-23T08:02:27Z</time>
      </trkpt>
      <trkpt lat="43.49711" lon="6.91211">
        <ele>245.75</ele>
        <time>2012-05-23T08:02:30Z</time>
      </trkpt>
      <trkpt lat="43.4974" lon="6.91276">
        <ele>245.27</ele>
        <time>2012-05-23T08:02:44Z</time>
      </trkpt>
      <trkpt lat="43.49759" lon="6.91294">
        <ele>244.79</ele>
        <time>2012-05-23T08:02:49Z</time>
      </trkpt>
      <trkpt lat="43.49799" lon="6.9131">
        <ele>245.75</ele>
        <time>2012-05-23T08:03:02Z</time>
      </trkpt>
      <trkpt lat="43.49821" lon="6.91363">
        <ele>246.23</ele>
        <time>2012-05-23T08:03:18Z</time>
      </trkpt>
      <trkpt lat="43.49858" lon="6.91411">
        <ele>246.23</ele>
        <time>2012-05-23T08:03:34Z</time>
      </trkpt>
      <trkpt lat="43.49906" lon="6.91465">
        <ele>246.23</ele>
        <time>2012-05-23T08:03:51Z</time>
      </trkpt>
      <trkpt lat="43.49904" lon="6.91521">
        <ele>246.23</ele>
        <time>2012-05-23T08:04:02Z</time>
      </trkpt>
      <trkpt lat="43.4988" lon="6.91575">
        <ele>246.23</ele>
        <time>2012-05-23T08:04:15Z</time>
      </trkpt>
      <trkpt lat="43.49841" lon="6.91586">
        <ele>246.23</ele>
        <time>2012-05-23T08:04:26Z</time>
      </trkpt>
      <trkpt lat="43.49793" lon="6.91556">
        <ele>247.2</ele>
        <time>2012-05-23T08:04:42Z</time>
      </trkpt>
      <trkpt lat="43.49747" lon="6.91541">
        <ele>248.64</ele>
        <time>2012-05-23T08:04:59Z</time>
      </trkpt>
      <trkpt lat="43.4971" lon="6.91558">
        <ele>248.64</ele>
        <time>2012-05-23T08:05:12Z</time>
      </trkpt>
      <trkpt lat="43.49678" lon="6.91609">
        <ele>248.64</ele>
        <time>2012-05-23T08:05:28Z</time>
      </trkpt>
      <trkpt lat="43.49659" lon="6.91672">
        <ele>248.64</ele>
        <time>2012-05-23T08:05:43Z</time>
      </trkpt>
      <trkpt lat="43.49649" lon="6.91752">
        <ele>247.68</ele>
        <time>2012-05-23T08:06:02Z</time>
      </trkpt>
      <trkpt lat="43.4965" lon="6.91767">
        <ele>247.68</ele>
        <time>2012-05-23T08:06:16Z</time>
      </trkpt>
      <trkpt lat="43.4965" lon="6.91767">
        <ele>247.2</ele>
        <time>2012-05-23T08:06:28Z</time>
      </trkpt>
      <trkpt lat="43.49651" lon="6.91767">
        <ele>247.2</ele>
        <time>2012-05-23T08:06:31Z</time>
      </trkpt>
      <trkpt lat="43.49651" lon="6.91757">
        <ele>247.68</ele>
        <time>2012-05-23T08:06:38Z</time>
      </trkpt>
      <trkpt lat="43.4965" lon="6.91768">
        <ele>247.68</ele>
        <time>2012-05-23T08:06:47Z</time>
      </trkpt>
      <trkpt lat="43.4965" lon="6.91773">
        <ele>247.2</ele>
        <time>2012-05-23T08:07:00Z</time>
      </trkpt>
      <trkpt lat="43.49655" lon="6.91786">
        <ele>246.72</ele>
        <time>2012-05-23T08:07:17Z</time>
      </trkpt>
      <trkpt lat="43.49681" lon="6.91854">
        <ele>243.83</ele>
        <time>2012-05-23T08:07:31Z</time>
      </trkpt>
      <trkpt lat="43.49699" lon="6.91905">
        <ele>241.43</ele>
        <time>2012-05-23T08:07:37Z</time>
      </trkpt>
      <trkpt lat="43.49729" lon="6.91975">
        <ele>238.54</ele>
        <time>2012-05-23T08:07:50Z</time>
      </trkpt>
      <trkpt lat="43.49728" lon="6.91972">
        <ele>238.54</ele>
        <time>2012-05-23T08:08:03Z</time>
      </trkpt>
      <trkpt lat="43.4973" lon="6.91974">
        <ele>238.06</ele>
        <time>2012-05-23T08:08:18Z</time>
      </trkpt>
      <trkpt lat="43.49732" lon="6.91977">
        <ele>238.06</ele>
        <time>2012-05-23T08:08:36Z</time>
      </trkpt>
      <trkpt lat="43.49733" lon="6.9198">
        <ele>238.54</ele>
        <time>2012-05-23T08:09:05Z</time>
      </trkpt>
      <trkpt lat="43.49735" lon="6.91988">
        <ele>238.06</ele>
        <time>2012-05-23T08:09:24Z</time>
      </trkpt>
      <trkpt lat="43.49744" lon="6.92008">
        <ele>237.58</ele>
        <time>2012-05-23T08:09:34Z</time>
      </trkpt>
      <trkpt lat="43.49751" lon="6.92025">
        <ele>237.58</ele>
        <time>2012-05-23T08:09:42Z</time>
      </trkpt>
      <trkpt lat="43.49764" lon="6.92078">
        <ele>237.1</ele>
        <time>2012-05-23T08:10:00Z</time>
      </trkpt>
      <trkpt lat="43.49769" lon="6.92089">
        <ele>236.62</ele>
        <time>2012-05-23T08:10:04Z</time>
      </trkpt>
      <trkpt lat="43.4977" lon="6.92094">
        <ele>236.62</ele>
        <time>2012-05-23T08:10:18Z</time>
      </trkpt>
      <trkpt lat="43.49764" lon="6.92096">
        <ele>236.62</ele>
        <time>2012-05-23T08:10:34Z</time>
      </trkpt>
      <trkpt lat="43.4976" lon="6.92101">
        <ele>237.1</ele>
        <time>2012-05-23T08:10:42Z</time>
      </trkpt>
      <trkpt lat="43.49757" lon="6.92109">
        <ele>237.58</ele>
        <time>2012-05-23T08:10:54Z</time>
      </trkpt>
      <trkpt lat="43.49754" lon="6.92114">
        <ele>236.62</ele>
        <time>2012-05-23T08:11:07Z</time>
      </trkpt>
      <trkpt lat="43.49754" lon="6.92114">
        <ele>236.62</ele>
        <time>2012-05-23T08:11:09Z</time>
      </trkpt>
      <trkpt lat="43.49758" lon="6.92101">
        <ele>237.58</ele>
        <time>2012-05-23T08:11:23Z</time>
      </trkpt>
      <trkpt lat="43.49766" lon="6.92091">
        <ele>236.62</ele>
        <time>2012-05-23T08:11:39Z</time>
      </trkpt>
      <trkpt lat="43.49771" lon="6.92082">
        <ele>236.14</ele>
        <time>2012-05-23T08:11:52Z</time>
      </trkpt>
      <trkpt lat="43.49774" lon="6.92082">
        <ele>236.14</ele>
        <time>2012-05-23T08:12:07Z</time>
      </trkpt>
      <trkpt lat="43.49774" lon="6.92083">
        <ele>236.14</ele>
        <time>2012-05-23T08:12:08Z</time>
      </trkpt>
      <trkpt lat="43.49772" lon="6.92084">
        <ele>236.14</ele>
        <time>2012-05-23T08:12:11Z</time>
      </trkpt>
      <trkpt lat="43.49762" lon="6.92074">
        <ele>236.14</ele>
        <time>2012-05-23T08:12:26Z</time>
      </trkpt>
      <trkpt lat="43.49758" lon="6.9206">
        <ele>236.14</ele>
        <time>2012-05-23T08:12:40Z</time>
      </trkpt>
      <trkpt lat="43.49753" lon="6.92045">
        <ele>236.14</ele>
        <time>2012-05-23T08:12:54Z</time>
      </trkpt>
      <trkpt lat="43.49749" lon="6.92029">
        <ele>236.14</ele>
        <time>2012-05-23T08:13:08Z</time>
      </trkpt>
      <trkpt lat="43.49746" lon="6.92023">
        <ele>236.14</ele>
        <time>2012-05-23T08:13:22Z</time>
      </trkpt>
      <trkpt lat="43.49742" lon="6.92014">
        <ele>236.62</ele>
        <time>2012-05-23T08:13:34Z</time>
      </trkpt>
      <trkpt lat="43.49737" lon="6.92001">
        <ele>236.62</ele>
        <time>2012-05-23T08:13:49Z</time>
      </trkpt>
      <trkpt lat="43.49733" lon="6.91988">
        <ele>236.62</ele>
        <time>2012-05-23T08:14:00Z</time>
      </trkpt>
      <trkpt lat="43.49727" lon="6.91972">
        <ele>236.62</ele>
        <time>2012-05-23T08:14:16Z</time>
      </trkpt>
      <trkpt lat="43.49728" lon="6.91969">
        <ele>236.62</ele>
        <time>2012-05-23T08:14:48Z</time>
      </trkpt>
      <trkpt lat="43.49729" lon="6.9197">
        <ele>236.62</ele>
        <time>2012-05-23T08:15:45Z</time>
      </trkpt>
      <trkpt lat="43.49729" lon="6.91969">
        <ele>236.62</ele>
        <time>2012-05-23T08:16:13Z</time>
      </trkpt>
      <trkpt lat="43.49729" lon="6.9197">
        <ele>236.62</ele>
        <time>2012-05-23T08:16:49Z</time>
      </trkpt>
      <trkpt lat="43.49729" lon="6.91972">
        <ele>236.62</ele>
        <time>2012-05-23T08:17:02Z</time>
      </trkpt>
      <trkpt lat="43.4973" lon="6.91973">
        <ele>237.1</ele>
        <time>2012-05-23T08:17:40Z</time>
      </trkpt>
      <trkpt lat="43.49731" lon="6.91976">
        <ele>237.58</ele>
        <time>2012-05-23T08:18:38Z</time>
      </trkpt>
      <trkpt lat="43.49732" lon="6.91982">
        <ele>237.1</ele>
        <time>2012-05-23T08:19:21Z</time>
      </trkpt>
      <trkpt lat="43.4974" lon="6.91997">
        <ele>237.1</ele>
        <time>2012-05-23T08:19:35Z</time>
      </trkpt>
      <trkpt lat="43.49746" lon="6.92013">
        <ele>236.62</ele>
        <time>2012-05-23T08:19:50Z</time>
      </trkpt>
      <trkpt lat="43.49752" lon="6.9203">
        <ele>236.62</ele>
        <time>2012-05-23T08:20:06Z</time>
      </trkpt>
      <trkpt lat="43.49757" lon="6.92049">
        <ele>236.14</ele>
        <time>2012-05-23T08:20:21Z</time>
      </trkpt>
      <trkpt lat="43.49762" lon="6.92066">
        <ele>235.66</ele>
        <time>2012-05-23T08:20:36Z</time>
      </trkpt>
      <trkpt lat="43.49769" lon="6.92077">
        <ele>235.66</ele>
        <time>2012-05-23T08:20:50Z</time>
      </trkpt>
      <trkpt lat="43.49772" lon="6.92088">
        <ele>235.66</ele>
        <time>2012-05-23T08:21:02Z</time>
      </trkpt>
      <trkpt lat="43.49773" lon="6.9209">
        <ele>235.66</ele>
        <time>2012-05-23T08:21:15Z</time>
      </trkpt>
      <trkpt lat="43.49769" lon="6.92084">
        <ele>235.18</ele>
        <time>2012-05-23T08:21:32Z</time>
      </trkpt>
      <trkpt lat="43.49769" lon="6.92085">
        <ele>235.66</ele>
        <time>2012-05-23T08:21:45Z</time>
      </trkpt>
      <trkpt lat="43.49768" lon="6.92086">
        <ele>235.66</ele>
        <time>2012-05-23T08:23:27Z</time>
      </trkpt>
      <trkpt lat="43.49775" lon="6.92101">
        <ele>235.18</ele>
        <time>2012-05-23T08:23:44Z</time>
      </trkpt>
      <trkpt lat="43.49789" lon="6.92152">
        <ele>234.22</ele>
        <time>2012-05-23T08:24:00Z</time>
      </trkpt>
      <trkpt lat="43.49815" lon="6.922">
        <ele>233.26</ele>
        <time>2012-05-23T08:24:17Z</time>
      </trkpt>
      <trkpt lat="43.49823" lon="6.92219">
        <ele>232.3</ele>
        <time>2012-05-23T08:24:29Z</time>
      </trkpt>
      <trkpt lat="43.49831" lon="6.92226">
        <ele>232.78</ele>
        <time>2012-05-23T08:24:48Z</time>
      </trkpt>
      <trkpt lat="43.4983" lon="6.92228">
        <ele>232.3</ele>
        <time>2012-05-23T08:25:20Z</time>
      </trkpt>
      <trkpt lat="43.49823" lon="6.92217">
        <ele>231.81</ele>
        <time>2012-05-23T08:25:36Z</time>
      </trkpt>
      <trkpt lat="43.49823" lon="6.92218">
        <ele>231.81</ele>
        <time>2012-05-23T08:25:44Z</time>
      </trkpt>
      <trkpt lat="43.4982" lon="6.92223">
        <ele>231.81</ele>
        <time>2012-05-23T08:25:50Z</time>
      </trkpt>
      <trkpt lat="43.49815" lon="6.92225">
        <ele>231.33</ele>
        <time>2012-05-23T08:25:54Z</time>
      </trkpt>
      <trkpt lat="43.49808" lon="6.92207">
        <ele>233.74</ele>
        <time>2012-05-23T08:26:07Z</time>
      </trkpt>
      <trkpt lat="43.49808" lon="6.92205">
        <ele>235.66</ele>
        <time>2012-05-23T08:26:20Z</time>
      </trkpt>
      <trkpt lat="43.49809" lon="6.92206">
        <ele>235.18</ele>
        <time>2012-05-23T08:26:27Z</time>
      </trkpt>
      <trkpt lat="43.49808" lon="6.92205">
        <ele>235.66</ele>
        <time>2012-05-23T08:26:44Z</time>
      </trkpt>
      <trkpt lat="43.49809" lon="6.92206">
        <ele>235.18</ele>
        <time>2012-05-23T08:27:33Z</time>
      </trkpt>
      <trkpt lat="43.49811" lon="6.92206">
        <ele>235.66</ele>
        <time>2012-05-23T08:27:47Z</time>
      </trkpt>
      <trkpt lat="43.4981" lon="6.92206">
        <ele>235.18</ele>
        <time>2012-05-23T08:29:44Z</time>
      </trkpt>
      <trkpt lat="43.49809" lon="6.92207">
        <ele>235.66</ele>
        <time>2012-05-23T08:31:28Z</time>
      </trkpt>
      <trkpt lat="43.49809" lon="6.92208">
        <ele>235.18</ele>
        <time>2012-05-23T08:31:42Z</time>
      </trkpt>
      <trkpt lat="43.49811" lon="6.92211">
        <ele>234.7</ele>
        <time>2012-05-23T08:31:49Z</time>
      </trkpt>
      <trkpt lat="43.49817" lon="6.9222">
        <ele>232.3</ele>
        <time>2012-05-23T08:31:55Z</time>
      </trkpt>
      <trkpt lat="43.49829" lon="6.92226">
        <ele>232.3</ele>
        <time>2012-05-23T08:32:10Z</time>
      </trkpt>
      <trkpt lat="43.49829" lon="6.92225">
        <ele>232.3</ele>
        <time>2012-05-23T08:32:19Z</time>
      </trkpt>
      <trkpt lat="43.49828" lon="6.9222">
        <ele>232.3</ele>
        <time>2012-05-23T08:32:23Z</time>
      </trkpt>
      <trkpt lat="43.49824" lon="6.92214">
        <ele>232.3</ele>
        <time>2012-05-23T08:32:27Z</time>
      </trkpt>
      <trkpt lat="43.49822" lon="6.92212">
        <ele>232.3</ele>
        <time>2012-05-23T08:32:29Z</time>
      </trkpt>
      <trkpt lat="43.49824" lon="6.92224">
        <ele>232.3</ele>
        <time>2012-05-23T08:32:36Z</time>
      </trkpt>
      <trkpt lat="43.49848" lon="6.92236">
        <ele>233.74</ele>
        <time>2012-05-23T08:32:49Z</time>
      </trkpt>
      <trkpt lat="43.4986" lon="6.92254">
        <ele>236.14</ele>
        <time>2012-05-23T08:32:59Z</time>
      </trkpt>
      <trkpt lat="43.49866" lon="6.92252">
        <ele>237.1</ele>
        <time>2012-05-23T08:33:03Z</time>
      </trkpt>
      <trkpt lat="43.49882" lon="6.92231">
        <ele>240.95</ele>
        <time>2012-05-23T08:33:16Z</time>
      </trkpt>
      <trkpt lat="43.49904" lon="6.92215">
        <ele>243.83</ele>
        <time>2012-05-23T08:33:31Z</time>
      </trkpt>
      <trkpt lat="43.4993" lon="6.92199">
        <ele>246.72</ele>
        <time>2012-05-23T08:33:49Z</time>
      </trkpt>
      <trkpt lat="43.49953" lon="6.92182">
        <ele>250.08</ele>
        <time>2012-05-23T08:34:06Z</time>
      </trkpt>
      <trkpt lat="43.49965" lon="6.92178">
        <ele>251.04</ele>
        <time>2012-05-23T08:34:15Z</time>
      </trkpt>
      <trkpt lat="43.49973" lon="6.92205">
        <ele>251.52</ele>
        <time>2012-05-23T08:34:26Z</time>
      </trkpt>
      <trkpt lat="43.49975" lon="6.92212">
        <ele>251.52</ele>
        <time>2012-05-23T08:34:28Z</time>
      </trkpt>
      <trkpt lat="43.49989" lon="6.92237">
        <ele>250.08</ele>
        <time>2012-05-23T08:34:34Z</time>
      </trkpt>
      <trkpt lat="43.50015" lon="6.92269">
        <ele>248.16</ele>
        <time>2012-05-23T08:34:41Z</time>
      </trkpt>
      <trkpt lat="43.50022" lon="6.92277">
        <ele>247.68</ele>
        <time>2012-05-23T08:34:43Z</time>
      </trkpt>
      <trkpt lat="43.50039" lon="6.92302">
        <ele>246.72</ele>
        <time>2012-05-23T08:34:47Z</time>
      </trkpt>
      <trkpt lat="43.50046" lon="6.92332">
        <ele>244.31</ele>
        <time>2012-05-23T08:34:52Z</time>
      </trkpt>
      <trkpt lat="43.50085" lon="6.92354">
        <ele>240.47</ele>
        <time>2012-05-23T08:35:00Z</time>
      </trkpt>
      <trkpt lat="43.50111" lon="6.92366">
        <ele>236.62</ele>
        <time>2012-05-23T08:35:05Z</time>
      </trkpt>
      <trkpt lat="43.50131" lon="6.92377">
        <ele>233.74</ele>
        <time>2012-05-23T08:35:09Z</time>
      </trkpt>
      <trkpt lat="43.50139" lon="6.92381">
        <ele>233.26</ele>
        <time>2012-05-23T08:35:11Z</time>
      </trkpt>
      <trkpt lat="43.50149" lon="6.92378">
        <ele>230.85</ele>
        <time>2012-05-23T08:35:14Z</time>
      </trkpt>
      <trkpt lat="43.5017" lon="6.92363">
        <ele>227.49</ele>
        <time>2012-05-23T08:35:22Z</time>
      </trkpt>
      <trkpt lat="43.50183" lon="6.92358">
        <ele>225.57</ele>
        <time>2012-05-23T08:35:27Z</time>
      </trkpt>
      <trkpt lat="43.50195" lon="6.9235">
        <ele>223.16</ele>
        <time>2012-05-23T08:35:31Z</time>
      </trkpt>
      <trkpt lat="43.50219" lon="6.92337">
        <ele>219.8</ele>
        <time>2012-05-23T08:35:39Z</time>
      </trkpt>
      <trkpt lat="43.50248" lon="6.92318">
        <ele>216.91</ele>
        <time>2012-05-23T08:35:46Z</time>
      </trkpt>
      <trkpt lat="43.50273" lon="6.923">
        <ele>213.55</ele>
        <time>2012-05-23T08:35:55Z</time>
      </trkpt>
      <trkpt lat="43.50305" lon="6.92303">
        <ele>210.19</ele>
        <time>2012-05-23T08:36:07Z</time>
      </trkpt>
      <trkpt lat="43.50331" lon="6.92332">
        <ele>206.82</ele>
        <time>2012-05-23T08:36:18Z</time>
      </trkpt>
      <trkpt lat="43.50354" lon="6.92367">
        <ele>203.46</ele>
        <time>2012-05-23T08:36:29Z</time>
      </trkpt>
      <trkpt lat="43.50372" lon="6.92393">
        <ele>200.09</ele>
        <time>2012-05-23T08:36:38Z</time>
      </trkpt>
      <trkpt lat="43.5039" lon="6.92415">
        <ele>197.21</ele>
        <time>2012-05-23T08:36:51Z</time>
      </trkpt>
      <trkpt lat="43.50413" lon="6.92445">
        <ele>194.32</ele>
        <time>2012-05-23T08:37:07Z</time>
      </trkpt>
      <trkpt lat="43.5045" lon="6.92484">
        <ele>192.88</ele>
        <time>2012-05-23T08:37:20Z</time>
      </trkpt>
      <trkpt lat="43.50468" lon="6.92498">
        <ele>192.4</ele>
        <time>2012-05-23T08:37:33Z</time>
      </trkpt>
      <trkpt lat="43.50487" lon="6.92501">
        <ele>193.84</ele>
        <time>2012-05-23T08:37:51Z</time>
      </trkpt>
      <trkpt lat="43.50513" lon="6.92497">
        <ele>196.25</ele>
        <time>2012-05-23T08:38:07Z</time>
      </trkpt>
      <trkpt lat="43.50541" lon="6.92465">
        <ele>199.13</ele>
        <time>2012-05-23T08:38:27Z</time>
      </trkpt>
      <trkpt lat="43.50557" lon="6.92419">
        <ele>201.53</ele>
        <time>2012-05-23T08:38:48Z</time>
      </trkpt>
      <trkpt lat="43.50567" lon="6.92364">
        <ele>203.46</ele>
        <time>2012-05-23T08:39:08Z</time>
      </trkpt>
      <trkpt lat="43.50577" lon="6.92301">
        <ele>203.94</ele>
        <time>2012-05-23T08:39:29Z</time>
      </trkpt>
      <trkpt lat="43.50591" lon="6.92262">
        <ele>202.98</ele>
        <time>2012-05-23T08:39:46Z</time>
      </trkpt>
      <trkpt lat="43.50625" lon="6.92239">
        <ele>201.05</ele>
        <time>2012-05-23T08:40:01Z</time>
      </trkpt>
      <trkpt lat="43.50664" lon="6.92222">
        <ele>198.65</ele>
        <time>2012-05-23T08:40:17Z</time>
      </trkpt>
      <trkpt lat="43.507" lon="6.92206">
        <ele>197.21</ele>
        <time>2012-05-23T08:40:28Z</time>
      </trkpt>
      <trkpt lat="43.50767" lon="6.92187">
        <ele>193.84</ele>
        <time>2012-05-23T08:40:45Z</time>
      </trkpt>
      <trkpt lat="43.50792" lon="6.92176">
        <ele>191.44</ele>
        <time>2012-05-23T08:40:59Z</time>
      </trkpt>
      <trkpt lat="43.50817" lon="6.92154">
        <ele>188.56</ele>
        <time>2012-05-23T08:41:12Z</time>
      </trkpt>
      <trkpt lat="43.50836" lon="6.92117">
        <ele>185.19</ele>
        <time>2012-05-23T08:41:23Z</time>
      </trkpt>
      <trkpt lat="43.50867" lon="6.92085">
        <ele>182.31</ele>
        <time>2012-05-23T08:41:34Z</time>
      </trkpt>
      <trkpt lat="43.50889" lon="6.92059">
        <ele>178.94</ele>
        <time>2012-05-23T08:41:41Z</time>
      </trkpt>
      <trkpt lat="43.50893" lon="6.92052">
        <ele>178.46</ele>
        <time>2012-05-23T08:41:42Z</time>
      </trkpt>
      <trkpt lat="43.50911" lon="6.91998">
        <ele>176.06</ele>
        <time>2012-05-23T08:41:49Z</time>
      </trkpt>
      <trkpt lat="43.5091" lon="6.91944">
        <ele>172.69</ele>
        <time>2012-05-23T08:41:59Z</time>
      </trkpt>
      <trkpt lat="43.5091" lon="6.91928">
        <ele>171.25</ele>
        <time>2012-05-23T08:42:02Z</time>
      </trkpt>
      <trkpt lat="43.50925" lon="6.91857">
        <ele>167.41</ele>
        <time>2012-05-23T08:42:14Z</time>
      </trkpt>
      <trkpt lat="43.50927" lon="6.91844">
        <ele>166.93</ele>
        <time>2012-05-23T08:42:16Z</time>
      </trkpt>
      <trkpt lat="43.50926" lon="6.91779">
        <ele>163.56</ele>
        <time>2012-05-23T08:42:25Z</time>
      </trkpt>
      <trkpt lat="43.50924" lon="6.9173">
        <ele>160.68</ele>
        <time>2012-05-23T08:42:33Z</time>
      </trkpt>
      <trkpt lat="43.50929" lon="6.91723">
        <ele>159.72</ele>
        <time>2012-05-23T08:42:35Z</time>
      </trkpt>
      <trkpt lat="43.50961" lon="6.91703">
        <ele>156.83</ele>
        <time>2012-05-23T08:42:48Z</time>
      </trkpt>
      <trkpt lat="43.50993" lon="6.91696">
        <ele>154.91</ele>
        <time>2012-05-23T08:42:57Z</time>
      </trkpt>
      <trkpt lat="43.51055" lon="6.91691">
        <ele>151.54</ele>
        <time>2012-05-23T08:43:10Z</time>
      </trkpt>
      <trkpt lat="43.51076" lon="6.9169">
        <ele>150.58</ele>
        <time>2012-05-23T08:43:16Z</time>
      </trkpt>
      <trkpt lat="43.51071" lon="6.91682">
        <ele>149.62</ele>
        <time>2012-05-23T08:43:22Z</time>
      </trkpt>
      <trkpt lat="43.51" lon="6.91676">
        <ele>146.74</ele>
        <time>2012-05-23T08:43:37Z</time>
      </trkpt>
      <trkpt lat="43.50965" lon="6.91672">
        <ele>144.34</ele>
        <time>2012-05-23T08:43:43Z</time>
      </trkpt>
      <trkpt lat="43.50922" lon="6.91675">
        <ele>141.45</ele>
        <time>2012-05-23T08:43:51Z</time>
      </trkpt>
      <trkpt lat="43.50887" lon="6.91704">
        <ele>138.57</ele>
        <time>2012-05-23T08:44:02Z</time>
      </trkpt>
      <trkpt lat="43.50883" lon="6.91714">
        <ele>138.09</ele>
        <time>2012-05-23T08:44:05Z</time>
      </trkpt>
      <trkpt lat="43.50877" lon="6.91699">
        <ele>136.16</ele>
        <time>2012-05-23T08:44:13Z</time>
      </trkpt>
      <trkpt lat="43.50879" lon="6.91696">
        <ele>136.16</ele>
        <time>2012-05-23T08:44:14Z</time>
      </trkpt>
      <trkpt lat="43.50913" lon="6.91654">
        <ele>132.8</ele>
        <time>2012-05-23T08:44:27Z</time>
      </trkpt>
      <trkpt lat="43.5092" lon="6.9165">
        <ele>132.32</ele>
        <time>2012-05-23T08:44:29Z</time>
      </trkpt>
      <trkpt lat="43.50943" lon="6.91645">
        <ele>130.88</ele>
        <time>2012-05-23T08:44:34Z</time>
      </trkpt>
      <trkpt lat="43.50963" lon="6.91636">
        <ele>129.43</ele>
        <time>2012-05-23T08:44:39Z</time>
      </trkpt>
      <trkpt lat="43.51015" lon="6.91627">
        <ele>126.07</ele>
        <time>2012-05-23T08:44:50Z</time>
      </trkpt>
      <trkpt lat="43.5106" lon="6.91621">
        <ele>123.19</ele>
        <time>2012-05-23T08:44:58Z</time>
      </trkpt>
      <trkpt lat="43.51074" lon="6.91622">
        <ele>121.26</ele>
        <time>2012-05-23T08:45:02Z</time>
      </trkpt>
      <trkpt lat="43.51076" lon="6.91615">
        <ele>120.3</ele>
        <time>2012-05-23T08:45:06Z</time>
      </trkpt>
      <trkpt lat="43.51072" lon="6.91612">
        <ele>119.82</ele>
        <time>2012-05-23T08:45:08Z</time>
      </trkpt>
      <trkpt lat="43.51055" lon="6.91612">
        <ele>119.34</ele>
        <time>2012-05-23T08:45:13Z</time>
      </trkpt>
      <trkpt lat="43.50999" lon="6.91605">
        <ele>116.94</ele>
        <time>2012-05-23T08:45:24Z</time>
      </trkpt>
      <trkpt lat="43.50974" lon="6.91605">
        <ele>115.98</ele>
        <time>2012-05-23T08:45:29Z</time>
      </trkpt>
      <trkpt lat="43.5096" lon="6.91606">
        <ele>115.5</ele>
        <time>2012-05-23T08:45:32Z</time>
      </trkpt>
      <trkpt lat="43.50945" lon="6.91612">
        <ele>114.53</ele>
        <time>2012-05-23T08:45:36Z</time>
      </trkpt>
      <trkpt lat="43.50949" lon="6.91594">
        <ele>112.13</ele>
        <time>2012-05-23T08:45:45Z</time>
      </trkpt>
      <trkpt lat="43.50954" lon="6.91594">
        <ele>111.65</ele>
        <time>2012-05-23T08:45:47Z</time>
      </trkpt>
      <trkpt lat="43.50983" lon="6.91583">
        <ele>107.81</ele>
        <time>2012-05-23T08:45:56Z</time>
      </trkpt>
      <trkpt lat="43.51012" lon="6.91573">
        <ele>104.44</ele>
        <time>2012-05-23T08:46:06Z</time>
      </trkpt>
      <trkpt lat="43.51041" lon="6.91563">
        <ele>101.08</ele>
        <time>2012-05-23T08:46:13Z</time>
      </trkpt>
      <trkpt lat="43.51068" lon="6.91555">
        <ele>97.71</ele>
        <time>2012-05-23T08:46:19Z</time>
      </trkpt>
      <trkpt lat="43.51078" lon="6.91554">
        <ele>96.27</ele>
        <time>2012-05-23T08:46:21Z</time>
      </trkpt>
      <trkpt lat="43.51089" lon="6.9155">
        <ele>95.79</ele>
        <time>2012-05-23T08:46:23Z</time>
      </trkpt>
      <trkpt lat="43.51099" lon="6.91543">
        <ele>94.35</ele>
        <time>2012-05-23T08:46:25Z</time>
      </trkpt>
      <trkpt lat="43.51114" lon="6.91534">
        <ele>92.42</ele>
        <time>2012-05-23T08:46:28Z</time>
      </trkpt>
      <trkpt lat="43.51136" lon="6.91516">
        <ele>89.54</ele>
        <time>2012-05-23T08:46:33Z</time>
      </trkpt>
      <trkpt lat="43.5116" lon="6.915">
        <ele>86.66</ele>
        <time>2012-05-23T08:46:38Z</time>
      </trkpt>
      <trkpt lat="43.51182" lon="6.91487">
        <ele>83.29</ele>
        <time>2012-05-23T08:46:43Z</time>
      </trkpt>
      <trkpt lat="43.51214" lon="6.91481">
        <ele>80.41</ele>
        <time>2012-05-23T08:46:49Z</time>
      </trkpt>
      <trkpt lat="43.5124" lon="6.91484">
        <ele>77.52</ele>
        <time>2012-05-23T08:46:54Z</time>
      </trkpt>
      <trkpt lat="43.51249" lon="6.91487">
        <ele>76.56</ele>
        <time>2012-05-23T08:46:56Z</time>
      </trkpt>
      <trkpt lat="43.51265" lon="6.91499">
        <ele>74.64</ele>
        <time>2012-05-23T08:47:00Z</time>
      </trkpt>
      <trkpt lat="43.51286" lon="6.91511">
        <ele>71.27</ele>
        <time>2012-05-23T08:47:11Z</time>
      </trkpt>
      <trkpt lat="43.51317" lon="6.91548">
        <ele>69.83</ele>
        <time>2012-05-23T08:47:22Z</time>
      </trkpt>
      <trkpt lat="43.51352" lon="6.91599">
        <ele>66.47</ele>
        <time>2012-05-23T08:47:33Z</time>
      </trkpt>
      <trkpt lat="43.51365" lon="6.91594">
        <ele>65.03</ele>
        <time>2012-05-23T08:47:38Z</time>
      </trkpt>
      <trkpt lat="43.51375" lon="6.91604">
        <ele>64.07</ele>
        <time>2012-05-23T08:47:42Z</time>
      </trkpt>
      <trkpt lat="43.51409" lon="6.91691">
        <ele>63.58</ele>
        <time>2012-05-23T08:47:59Z</time>
      </trkpt>
      <trkpt lat="43.51412" lon="6.91696">
        <ele>64.07</ele>
        <time>2012-05-23T08:48:00Z</time>
      </trkpt>
      <trkpt lat="43.51429" lon="6.91757">
        <ele>63.1</ele>
        <time>2012-05-23T08:48:11Z</time>
      </trkpt>
      <trkpt lat="43.51428" lon="6.91816">
        <ele>62.14</ele>
        <time>2012-05-23T08:48:20Z</time>
      </trkpt>
      <trkpt lat="43.5144" lon="6.91851">
        <ele>61.66</ele>
        <time>2012-05-23T08:48:26Z</time>
      </trkpt>
      <trkpt lat="43.51463" lon="6.91934">
        <ele>58.78</ele>
        <time>2012-05-23T08:48:37Z</time>
      </trkpt>
      <trkpt lat="43.51471" lon="6.91964">
        <ele>57.34</ele>
        <time>2012-05-23T08:48:40Z</time>
      </trkpt>
      <trkpt lat="43.51479" lon="6.92046">
        <ele>53.97</ele>
        <time>2012-05-23T08:48:47Z</time>
      </trkpt>
      <trkpt lat="43.51482" lon="6.92085">
        <ele>52.05</ele>
        <time>2012-05-23T08:48:50Z</time>
      </trkpt>
      <trkpt lat="43.51509" lon="6.92163">
        <ele>48.68</ele>
        <time>2012-05-23T08:48:57Z</time>
      </trkpt>
      <trkpt lat="43.51514" lon="6.92173">
        <ele>48.2</ele>
        <time>2012-05-23T08:48:58Z</time>
      </trkpt>
      <trkpt lat="43.51534" lon="6.92291">
        <ele>44.36</ele>
        <time>2012-05-23T08:49:08Z</time>
      </trkpt>
      <trkpt lat="43.51542" lon="6.92367">
        <ele>43.88</ele>
        <time>2012-05-23T08:49:15Z</time>
      </trkpt>
      <trkpt lat="43.51554" lon="6.92413">
        <ele>41.47</ele>
        <time>2012-05-23T08:49:20Z</time>
      </trkpt>
      <trkpt lat="43.51577" lon="6.9252">
        <ele>38.11</ele>
        <time>2012-05-23T08:49:31Z</time>
      </trkpt>
      <trkpt lat="43.51618" lon="6.92601">
        <ele>34.74</ele>
        <time>2012-05-23T08:49:40Z</time>
      </trkpt>
      <trkpt lat="43.51679" lon="6.92685">
        <ele>31.38</ele>
        <time>2012-05-23T08:49:51Z</time>
      </trkpt>
      <trkpt lat="43.51698" lon="6.92717">
        <ele>30.42</ele>
        <time>2012-05-23T08:49:55Z</time>
      </trkpt>
      <trkpt lat="43.51717" lon="6.92798">
        <ele>28.02</ele>
        <time>2012-05-23T08:50:03Z</time>
      </trkpt>
      <trkpt lat="43.51715" lon="6.92822">
        <ele>26.57</ele>
        <time>2012-05-23T08:50:05Z</time>
      </trkpt>
      <trkpt lat="43.51716" lon="6.92859">
        <ele>24.65</ele>
        <time>2012-05-23T08:50:08Z</time>
      </trkpt>
      <trkpt lat="43.51718" lon="6.92896">
        <ele>22.73</ele>
        <time>2012-05-23T08:50:11Z</time>
      </trkpt>
      <trkpt lat="43.51715" lon="6.92934">
        <ele>21.29</ele>
        <time>2012-05-23T08:50:14Z</time>
      </trkpt>
      <trkpt lat="43.51724" lon="6.92993">
        <ele>18.88</ele>
        <time>2012-05-23T08:50:19Z</time>
      </trkpt>
      <trkpt lat="43.51735" lon="6.93014">
        <ele>17.44</ele>
        <time>2012-05-23T08:50:21Z</time>
      </trkpt>
      <trkpt lat="43.51749" lon="6.93078">
        <ele>14.56</ele>
        <time>2012-05-23T08:50:27Z</time>
      </trkpt>
      <trkpt lat="43.51769" lon="6.93124">
        <ele>13.12</ele>
        <time>2012-05-23T08:50:32Z</time>
      </trkpt>
      <trkpt lat="43.51781" lon="6.93163">
        <ele>11.67</ele>
        <time>2012-05-23T08:50:36Z</time>
      </trkpt>
      <trkpt lat="43.5177" lon="6.93283">
        <ele>9.75</ele>
        <time>2012-05-23T08:50:49Z</time>
      </trkpt>
      <trkpt lat="43.51768" lon="6.93292">
        <ele>9.27</ele>
        <time>2012-05-23T08:50:50Z</time>
      </trkpt>
      <trkpt lat="43.51755" lon="6.93376">
        <ele>7.83</ele>
        <time>2012-05-23T08:51:00Z</time>
      </trkpt>
      <trkpt lat="43.51766" lon="6.93458">
        <ele>8.31</ele>
        <time>2012-05-23T08:51:12Z</time>
      </trkpt>
      <trkpt lat="43.5175" lon="6.9347">
        <ele>8.31</ele>
        <time>2012-05-23T08:51:18Z</time>
      </trkpt>
      <trkpt lat="43.51728" lon="6.9351">
        <ele>10.23</ele>
        <time>2012-05-23T08:51:33Z</time>
      </trkpt>
      <trkpt lat="43.51723" lon="6.93536">
        <ele>12.15</ele>
        <time>2012-05-23T08:51:48Z</time>
      </trkpt>
      <trkpt lat="43.51722" lon="6.93543">
        <ele>12.63</ele>
        <time>2012-05-23T08:52:02Z</time>
      </trkpt>
      <trkpt lat="43.51722" lon="6.93544">
        <ele>12.63</ele>
        <time>2012-05-23T08:52:12Z</time>
      </trkpt>
      <trkpt lat="43.51726" lon="6.93548">
        <ele>12.63</ele>
        <time>2012-05-23T08:52:16Z</time>
      </trkpt>
      <trkpt lat="43.51753" lon="6.93536">
        <ele>12.15</ele>
        <time>2012-05-23T08:52:24Z</time>
      </trkpt>
      <trkpt lat="43.51784" lon="6.93576">
        <ele>11.67</ele>
        <time>2012-05-23T08:52:33Z</time>
      </trkpt>
      <trkpt lat="43.51785" lon="6.936">
        <ele>12.15</ele>
        <time>2012-05-23T08:52:36Z</time>
      </trkpt>
      <trkpt lat="43.51781" lon="6.93694">
        <ele>15.04</ele>
        <time>2012-05-23T08:52:52Z</time>
      </trkpt>
      <trkpt lat="43.51791" lon="6.93747">
        <ele>18.4</ele>
        <time>2012-05-23T08:53:05Z</time>
      </trkpt>
      <trkpt lat="43.51793" lon="6.93806">
        <ele>21.29</ele>
        <time>2012-05-23T08:53:21Z</time>
      </trkpt>
      <trkpt lat="43.51809" lon="6.9387">
        <ele>24.17</ele>
        <time>2012-05-23T08:53:41Z</time>
      </trkpt>
      <trkpt lat="43.51841" lon="6.93921">
        <ele>27.53</ele>
        <time>2012-05-23T08:54:01Z</time>
      </trkpt>
      <trkpt lat="43.51862" lon="6.9396">
        <ele>30.42</ele>
        <time>2012-05-23T08:54:18Z</time>
      </trkpt>
      <trkpt lat="43.51904" lon="6.93986">
        <ele>33.3</ele>
        <time>2012-05-23T08:54:39Z</time>
      </trkpt>
      <trkpt lat="43.51952" lon="6.94013">
        <ele>35.23</ele>
        <time>2012-05-23T08:54:59Z</time>
      </trkpt>
      <trkpt lat="43.52011" lon="6.94041">
        <ele>31.86</ele>
        <time>2012-05-23T08:55:10Z</time>
      </trkpt>
      <trkpt lat="43.52056" lon="6.94056">
        <ele>29.46</ele>
        <time>2012-05-23T08:55:16Z</time>
      </trkpt>
      <trkpt lat="43.52093" lon="6.9405">
        <ele>27.53</ele>
        <time>2012-05-23T08:55:21Z</time>
      </trkpt>
      <trkpt lat="43.52126" lon="6.94021">
        <ele>24.17</ele>
        <time>2012-05-23T08:55:28Z</time>
      </trkpt>
      <trkpt lat="43.5214" lon="6.94014">
        <ele>23.21</ele>
        <time>2012-05-23T08:55:32Z</time>
      </trkpt>
      <trkpt lat="43.52148" lon="6.94014">
        <ele>22.73</ele>
        <time>2012-05-23T08:55:34Z</time>
      </trkpt>
      <trkpt lat="43.52168" lon="6.93982">
        <ele>20.81</ele>
        <time>2012-05-23T08:55:41Z</time>
      </trkpt>
      <trkpt lat="43.52164" lon="6.93969">
        <ele>20.81</ele>
        <time>2012-05-23T08:55:43Z</time>
      </trkpt>
      <trkpt lat="43.52152" lon="6.93936">
        <ele>21.29</ele>
        <time>2012-05-23T08:55:49Z</time>
      </trkpt>
      <trkpt lat="43.52161" lon="6.93882">
        <ele>23.69</ele>
        <time>2012-05-23T08:56:03Z</time>
      </trkpt>
      <trkpt lat="43.52171" lon="6.93834">
        <ele>27.05</ele>
        <time>2012-05-23T08:56:19Z</time>
      </trkpt>
      <trkpt lat="43.52179" lon="6.93797">
        <ele>29.94</ele>
        <time>2012-05-23T08:56:32Z</time>
      </trkpt>
      <trkpt lat="43.52188" lon="6.93756">
        <ele>33.3</ele>
        <time>2012-05-23T08:56:47Z</time>
      </trkpt>
      <trkpt lat="43.52207" lon="6.93721">
        <ele>35.71</ele>
        <time>2012-05-23T08:57:04Z</time>
      </trkpt>
      <trkpt lat="43.52226" lon="6.93698">
        <ele>37.63</ele>
        <time>2012-05-23T08:57:19Z</time>
      </trkpt>
      <trkpt lat="43.52247" lon="6.93676">
        <ele>40.03</ele>
        <time>2012-05-23T08:57:35Z</time>
      </trkpt>
      <trkpt lat="43.5226" lon="6.93689">
        <ele>41.47</ele>
        <time>2012-05-23T08:57:44Z</time>
      </trkpt>
      <trkpt lat="43.52269" lon="6.93685">
        <ele>42.44</ele>
        <time>2012-05-23T08:57:49Z</time>
      </trkpt>
      <trkpt lat="43.52283" lon="6.93655">
        <ele>46.28</ele>
        <time>2012-05-23T08:58:03Z</time>
      </trkpt>
      <trkpt lat="43.52297" lon="6.93623">
        <ele>49.16</ele>
        <time>2012-05-23T08:58:18Z</time>
      </trkpt>
      <trkpt lat="43.52309" lon="6.93593">
        <ele>52.05</ele>
        <time>2012-05-23T08:58:33Z</time>
      </trkpt>
      <trkpt lat="43.52323" lon="6.93557">
        <ele>55.41</ele>
        <time>2012-05-23T08:58:51Z</time>
      </trkpt>
      <trkpt lat="43.52339" lon="6.93521">
        <ele>58.3</ele>
        <time>2012-05-23T08:59:10Z</time>
      </trkpt>
      <trkpt lat="43.52368" lon="6.93532">
        <ele>59.26</ele>
        <time>2012-05-23T08:59:23Z</time>
      </trkpt>
      <trkpt lat="43.52383" lon="6.93542">
        <ele>60.22</ele>
        <time>2012-05-23T08:59:31Z</time>
      </trkpt>
      <trkpt lat="43.52392" lon="6.93541">
        <ele>60.22</ele>
        <time>2012-05-23T08:59:50Z</time>
      </trkpt>
      <trkpt lat="43.52391" lon="6.93542">
        <ele>59.26</ele>
        <time>2012-05-23T09:01:28Z</time>
      </trkpt>
      <trkpt lat="43.52388" lon="6.9355">
        <ele>60.7</ele>
        <time>2012-05-23T09:01:49Z</time>
      </trkpt>
      <trkpt lat="43.52389" lon="6.93552">
        <ele>61.18</ele>
        <time>2012-05-23T09:01:51Z</time>
      </trkpt>
      <trkpt lat="43.52408" lon="6.93575">
        <ele>63.1</ele>
        <time>2012-05-23T09:02:14Z</time>
      </trkpt>
      <trkpt lat="43.52418" lon="6.93586">
        <ele>65.03</ele>
        <time>2012-05-23T09:02:27Z</time>
      </trkpt>
      <trkpt lat="43.52418" lon="6.93611">
        <ele>67.91</ele>
        <time>2012-05-23T09:02:45Z</time>
      </trkpt>
      <trkpt lat="43.52414" lon="6.9362">
        <ele>68.87</ele>
        <time>2012-05-23T09:02:53Z</time>
      </trkpt>
      <trkpt lat="43.52415" lon="6.93639">
        <ele>70.79</ele>
        <time>2012-05-23T09:03:08Z</time>
      </trkpt>
      <trkpt lat="43.52421" lon="6.93649">
        <ele>73.2</ele>
        <time>2012-05-23T09:03:23Z</time>
      </trkpt>
      <trkpt lat="43.52426" lon="6.93666">
        <ele>76.56</ele>
        <time>2012-05-23T09:03:42Z</time>
      </trkpt>
      <trkpt lat="43.52426" lon="6.93687">
        <ele>78.97</ele>
        <time>2012-05-23T09:03:59Z</time>
      </trkpt>
      <trkpt lat="43.52428" lon="6.93708">
        <ele>81.37</ele>
        <time>2012-05-23T09:04:17Z</time>
      </trkpt>
      <trkpt lat="43.52427" lon="6.93719">
        <ele>82.81</ele>
        <time>2012-05-23T09:04:26Z</time>
      </trkpt>
      <trkpt lat="43.52425" lon="6.9373">
        <ele>84.25</ele>
        <time>2012-05-23T09:04:34Z</time>
      </trkpt>
      <trkpt lat="43.52428" lon="6.93747">
        <ele>85.69</ele>
        <time>2012-05-23T09:04:48Z</time>
      </trkpt>
      <trkpt lat="43.52432" lon="6.93756">
        <ele>87.62</ele>
        <time>2012-05-23T09:04:59Z</time>
      </trkpt>
      <trkpt lat="43.52437" lon="6.93748">
        <ele>90.02</ele>
        <time>2012-05-23T09:05:14Z</time>
      </trkpt>
      <trkpt lat="43.52443" lon="6.93761">
        <ele>92.9</ele>
        <time>2012-05-23T09:05:29Z</time>
      </trkpt>
      <trkpt lat="43.52447" lon="6.93738">
        <ele>96.27</ele>
        <time>2012-05-23T09:05:46Z</time>
      </trkpt>
      <trkpt lat="43.52451" lon="6.93718">
        <ele>99.15</ele>
        <time>2012-05-23T09:06:01Z</time>
      </trkpt>
      <trkpt lat="43.52453" lon="6.93717">
        <ele>99.15</ele>
        <time>2012-05-23T09:06:04Z</time>
      </trkpt>
      <trkpt lat="43.52459" lon="6.9374">
        <ele>102.04</ele>
        <time>2012-05-23T09:06:23Z</time>
      </trkpt>
      <trkpt lat="43.52462" lon="6.93718">
        <ele>105.4</ele>
        <time>2012-05-23T09:06:39Z</time>
      </trkpt>
      <trkpt lat="43.5247" lon="6.93693">
        <ele>107.81</ele>
        <time>2012-05-23T09:06:58Z</time>
      </trkpt>
      <trkpt lat="43.52484" lon="6.93684">
        <ele>111.17</ele>
        <time>2012-05-23T09:07:16Z</time>
      </trkpt>
      <trkpt lat="43.52485" lon="6.93683">
        <ele>111.17</ele>
        <time>2012-05-23T09:07:18Z</time>
      </trkpt>
      <trkpt lat="43.52488" lon="6.93699">
        <ele>114.53</ele>
        <time>2012-05-23T09:07:34Z</time>
      </trkpt>
      <trkpt lat="43.52491" lon="6.93716">
        <ele>117.42</ele>
        <time>2012-05-23T09:07:50Z</time>
      </trkpt>
      <trkpt lat="43.52497" lon="6.93715">
        <ele>120.3</ele>
        <time>2012-05-23T09:08:04Z</time>
      </trkpt>
      <trkpt lat="43.52501" lon="6.93726">
        <ele>122.71</ele>
        <time>2012-05-23T09:08:19Z</time>
      </trkpt>
      <trkpt lat="43.52504" lon="6.93737">
        <ele>125.59</ele>
        <time>2012-05-23T09:08:34Z</time>
      </trkpt>
      <trkpt lat="43.52505" lon="6.93737">
        <ele>125.59</ele>
        <time>2012-05-23T09:08:36Z</time>
      </trkpt>
      <trkpt lat="43.52514" lon="6.93733">
        <ele>128.47</ele>
        <time>2012-05-23T09:08:50Z</time>
      </trkpt>
      <trkpt lat="43.52511" lon="6.93742">
        <ele>130.4</ele>
        <time>2012-05-23T09:09:10Z</time>
      </trkpt>
      <trkpt lat="43.52511" lon="6.9374">
        <ele>129.92</ele>
        <time>2012-05-23T09:09:26Z</time>
      </trkpt>
      <trkpt lat="43.5251" lon="6.93739">
        <ele>130.88</ele>
        <time>2012-05-23T09:09:42Z</time>
      </trkpt>
      <trkpt lat="43.52511" lon="6.93739">
        <ele>130.88</ele>
        <time>2012-05-23T09:10:15Z</time>
      </trkpt>
      <trkpt lat="43.5251" lon="6.93739">
        <ele>131.36</ele>
        <time>2012-05-23T09:11:09Z</time>
      </trkpt>
      <trkpt lat="43.52509" lon="6.93737">
        <ele>130.88</ele>
        <time>2012-05-23T09:11:43Z</time>
      </trkpt>
      <trkpt lat="43.52509" lon="6.93739">
        <ele>131.36</ele>
        <time>2012-05-23T09:12:30Z</time>
      </trkpt>
      <trkpt lat="43.52512" lon="6.93743">
        <ele>131.36</ele>
        <time>2012-05-23T09:13:19Z</time>
      </trkpt>
      <trkpt lat="43.52512" lon="6.93741">
        <ele>130.88</ele>
        <time>2012-05-23T09:15:02Z</time>
      </trkpt>
      <trkpt lat="43.52512" lon="6.93741">
        <ele>131.36</ele>
        <time>2012-05-23T09:15:45Z</time>
      </trkpt>
      <trkpt lat="43.52511" lon="6.93741">
        <ele>130.88</ele>
        <time>2012-05-23T09:16:10Z</time>
      </trkpt>
      <trkpt lat="43.52511" lon="6.9374">
        <ele>130.88</ele>
        <time>2012-05-23T09:16:41Z</time>
      </trkpt>
      <trkpt lat="43.5251" lon="6.93739">
        <ele>130.88</ele>
        <time>2012-05-23T09:17:24Z</time>
      </trkpt>
      <trkpt lat="43.5251" lon="6.9374">
        <ele>131.36</ele>
        <time>2012-05-23T09:17:46Z</time>
      </trkpt>
      <trkpt lat="43.5251" lon="6.93739">
        <ele>130.88</ele>
        <time>2012-05-23T09:18:02Z</time>
      </trkpt>
      <trkpt lat="43.52509" lon="6.93739">
        <ele>130.4</ele>
        <time>2012-05-23T09:18:32Z</time>
      </trkpt>
      <trkpt lat="43.52512" lon="6.93736">
        <ele>130.4</ele>
        <time>2012-05-23T09:18:49Z</time>
      </trkpt>
      <trkpt lat="43.52512" lon="6.93736">
        <ele>129.92</ele>
        <time>2012-05-23T09:19:23Z</time>
      </trkpt>
      <trkpt lat="43.5251" lon="6.93733">
        <ele>127.99</ele>
        <time>2012-05-23T09:19:44Z</time>
      </trkpt>
      <trkpt lat="43.52504" lon="6.93737">
        <ele>126.55</ele>
        <time>2012-05-23T09:19:50Z</time>
      </trkpt>
      <trkpt lat="43.52502" lon="6.93737">
        <ele>126.07</ele>
        <time>2012-05-23T09:19:53Z</time>
      </trkpt>
      <trkpt lat="43.525" lon="6.93726">
        <ele>123.67</ele>
        <time>2012-05-23T09:20:03Z</time>
      </trkpt>
      <trkpt lat="43.52497" lon="6.93726">
        <ele>122.22</ele>
        <time>2012-05-23T09:20:07Z</time>
      </trkpt>
      <trkpt lat="43.52494" lon="6.93711">
        <ele>119.34</ele>
        <time>2012-05-23T09:20:20Z</time>
      </trkpt>
      <trkpt lat="43.52487" lon="6.93719">
        <ele>117.42</ele>
        <time>2012-05-23T09:20:30Z</time>
      </trkpt>
      <trkpt lat="43.52488" lon="6.93698">
        <ele>114.05</ele>
        <time>2012-05-23T09:20:47Z</time>
      </trkpt>
      <trkpt lat="43.52486" lon="6.93686">
        <ele>111.17</ele>
        <time>2012-05-23T09:21:00Z</time>
      </trkpt>
      <trkpt lat="43.52474" lon="6.93696">
        <ele>108.29</ele>
        <time>2012-05-23T09:21:15Z</time>
      </trkpt>
      <trkpt lat="43.5247" lon="6.937">
        <ele>107.81</ele>
        <time>2012-05-23T09:21:20Z</time>
      </trkpt>
      <trkpt lat="43.52464" lon="6.93722">
        <ele>105.4</ele>
        <time>2012-05-23T09:21:36Z</time>
      </trkpt>
      <trkpt lat="43.5246" lon="6.9374">
        <ele>102.52</ele>
        <time>2012-05-23T09:21:51Z</time>
      </trkpt>
      <trkpt lat="43.52457" lon="6.93738">
        <ele>101.56</ele>
        <time>2012-05-23T09:21:57Z</time>
      </trkpt>
      <trkpt lat="43.52455" lon="6.93719">
        <ele>100.11</ele>
        <time>2012-05-23T09:22:08Z</time>
      </trkpt>
      <trkpt lat="43.52449" lon="6.93743">
        <ele>96.75</ele>
        <time>2012-05-23T09:22:25Z</time>
      </trkpt>
      <trkpt lat="43.52445" lon="6.9376">
        <ele>93.39</ele>
        <time>2012-05-23T09:22:36Z</time>
      </trkpt>
      <trkpt lat="43.52443" lon="6.93763">
        <ele>92.42</ele>
        <time>2012-05-23T09:22:40Z</time>
      </trkpt>
      <trkpt lat="43.52435" lon="6.93745">
        <ele>89.54</ele>
        <time>2012-05-23T09:22:53Z</time>
      </trkpt>
      <trkpt lat="43.52432" lon="6.93754">
        <ele>88.1</ele>
        <time>2012-05-23T09:23:00Z</time>
      </trkpt>
      <trkpt lat="43.52428" lon="6.93756">
        <ele>87.14</ele>
        <time>2012-05-23T09:23:05Z</time>
      </trkpt>
      <trkpt lat="43.52425" lon="6.93727">
        <ele>83.77</ele>
        <time>2012-05-23T09:23:20Z</time>
      </trkpt>
      <trkpt lat="43.52427" lon="6.93702">
        <ele>80.89</ele>
        <time>2012-05-23T09:23:35Z</time>
      </trkpt>
      <trkpt lat="43.52425" lon="6.93685">
        <ele>78.48</ele>
        <time>2012-05-23T09:23:46Z</time>
      </trkpt>
      <trkpt lat="43.52421" lon="6.93664">
        <ele>75.12</ele>
        <time>2012-05-23T09:24:01Z</time>
      </trkpt>
      <trkpt lat="43.52417" lon="6.93646">
        <ele>71.27</ele>
        <time>2012-05-23T09:24:14Z</time>
      </trkpt>
      <trkpt lat="43.52414" lon="6.93643">
        <ele>70.31</ele>
        <time>2012-05-23T09:24:18Z</time>
      </trkpt>
      <trkpt lat="43.52411" lon="6.9364">
        <ele>69.83</ele>
        <time>2012-05-23T09:24:22Z</time>
      </trkpt>
      <trkpt lat="43.52417" lon="6.93604">
        <ele>66.47</ele>
        <time>2012-05-23T09:24:40Z</time>
      </trkpt>
      <trkpt lat="43.52412" lon="6.93579">
        <ele>63.58</ele>
        <time>2012-05-23T09:24:56Z</time>
      </trkpt>
      <trkpt lat="43.52404" lon="6.93568">
        <ele>61.18</ele>
        <time>2012-05-23T09:25:13Z</time>
      </trkpt>
      <trkpt lat="43.52391" lon="6.93555">
        <ele>59.74</ele>
        <time>2012-05-23T09:25:44Z</time>
      </trkpt>
      <trkpt lat="43.52389" lon="6.93552">
        <ele>59.74</ele>
        <time>2012-05-23T09:25:46Z</time>
      </trkpt>
      <trkpt lat="43.52388" lon="6.93544">
        <ele>59.74</ele>
        <time>2012-05-23T09:25:51Z</time>
      </trkpt>
      <trkpt lat="43.52391" lon="6.93542">
        <ele>58.78</ele>
        <time>2012-05-23T09:26:03Z</time>
      </trkpt>
      <trkpt lat="43.52392" lon="6.9354">
        <ele>59.26</ele>
        <time>2012-05-23T09:26:54Z</time>
      </trkpt>
      <trkpt lat="43.52391" lon="6.93542">
        <ele>59.26</ele>
        <time>2012-05-23T09:27:23Z</time>
      </trkpt>
      <trkpt lat="43.52388" lon="6.93541">
        <ele>59.26</ele>
        <time>2012-05-23T09:27:27Z</time>
      </trkpt>
      <trkpt lat="43.52342" lon="6.93518">
        <ele>58.3</ele>
        <time>2012-05-23T09:27:42Z</time>
      </trkpt>
      <trkpt lat="43.52332" lon="6.93528">
        <ele>57.34</ele>
        <time>2012-05-23T09:27:46Z</time>
      </trkpt>
      <trkpt lat="43.52311" lon="6.93587">
        <ele>53.97</ele>
        <time>2012-05-23T09:27:52Z</time>
      </trkpt>
      <trkpt lat="43.52292" lon="6.93635">
        <ele>50.61</ele>
        <time>2012-05-23T09:27:57Z</time>
      </trkpt>
      <trkpt lat="43.52279" lon="6.93668">
        <ele>46.76</ele>
        <time>2012-05-23T09:28:01Z</time>
      </trkpt>
      <trkpt lat="43.52257" lon="6.93685">
        <ele>42.44</ele>
        <time>2012-05-23T09:28:06Z</time>
      </trkpt>
      <trkpt lat="43.52219" lon="6.93694">
        <ele>38.59</ele>
        <time>2012-05-23T09:28:13Z</time>
      </trkpt>
      <trkpt lat="43.52206" lon="6.93692">
        <ele>36.19</ele>
        <time>2012-05-23T09:28:19Z</time>
      </trkpt>
      <trkpt lat="43.52208" lon="6.93692">
        <ele>35.71</ele>
        <time>2012-05-23T09:28:26Z</time>
      </trkpt>
      <trkpt lat="43.52204" lon="6.93684">
        <ele>35.71</ele>
        <time>2012-05-23T09:28:30Z</time>
      </trkpt>
      <trkpt lat="43.52203" lon="6.93595">
        <ele>34.74</ele>
        <time>2012-05-23T09:28:43Z</time>
      </trkpt>
      <trkpt lat="43.52206" lon="6.93478">
        <ele>31.38</ele>
        <time>2012-05-23T09:28:54Z</time>
      </trkpt>
      <trkpt lat="43.52206" lon="6.93466">
        <ele>30.9</ele>
        <time>2012-05-23T09:28:55Z</time>
      </trkpt>
      <trkpt lat="43.52208" lon="6.93359">
        <ele>27.53</ele>
        <time>2012-05-23T09:29:03Z</time>
      </trkpt>
      <trkpt lat="43.52208" lon="6.93312">
        <ele>24.65</ele>
        <time>2012-05-23T09:29:06Z</time>
      </trkpt>
      <trkpt lat="43.52211" lon="6.93279">
        <ele>23.69</ele>
        <time>2012-05-23T09:29:08Z</time>
      </trkpt>
      <trkpt lat="43.52224" lon="6.93234">
        <ele>19.36</ele>
        <time>2012-05-23T09:29:11Z</time>
      </trkpt>
      <trkpt lat="43.52256" lon="6.93209">
        <ele>15.52</ele>
        <time>2012-05-23T09:29:14Z</time>
      </trkpt>
      <trkpt lat="43.52294" lon="6.93198">
        <ele>11.67</ele>
        <time>2012-05-23T09:29:17Z</time>
      </trkpt>
      <trkpt lat="43.52347" lon="6.93197">
        <ele>7.83</ele>
        <time>2012-05-23T09:29:21Z</time>
      </trkpt>
      <trkpt lat="43.52396" lon="6.93198">
        <ele>5.42</ele>
        <time>2012-05-23T09:29:25Z</time>
      </trkpt>
      <trkpt lat="43.52455" lon="6.93248">
        <ele>4.94</ele>
        <time>2012-05-23T09:29:32Z</time>
      </trkpt>
      <trkpt lat="43.5255" lon="6.93353">
        <ele>5.42</ele>
        <time>2012-05-23T09:29:47Z</time>
      </trkpt>
      <trkpt lat="43.52667" lon="6.93485">
        <ele>5.42</ele>
        <time>2012-05-23T09:30:07Z</time>
      </trkpt>
      <trkpt lat="43.52677" lon="6.93495">
        <ele>5.42</ele>
        <time>2012-05-23T09:30:10Z</time>
      </trkpt>
      <trkpt lat="43.52709" lon="6.93508">
        <ele>5.91</ele>
        <time>2012-05-23T09:30:18Z</time>
      </trkpt>
      <trkpt lat="43.5274" lon="6.93506">
        <ele>6.39</ele>
        <time>2012-05-23T09:30:25Z</time>
      </trkpt>
      <trkpt lat="43.52758" lon="6.93522">
        <ele>5.42</ele>
        <time>2012-05-23T09:30:30Z</time>
      </trkpt>
      <trkpt lat="43.5279" lon="6.93514">
        <ele>5.42</ele>
        <time>2012-05-23T09:30:37Z</time>
      </trkpt>
      <trkpt lat="43.52902" lon="6.93504">
        <ele>3.02</ele>
        <time>2012-05-23T09:30:54Z</time>
      </trkpt>
      <trkpt lat="43.53069" lon="6.93496">
        <ele>2.54</ele>
        <time>2012-05-23T09:31:20Z</time>
      </trkpt>
      <trkpt lat="43.5317" lon="6.93484">
        <ele>4.94</ele>
        <time>2012-05-23T09:31:38Z</time>
      </trkpt>
      <trkpt lat="43.53192" lon="6.93483">
        <ele>6.39</ele>
        <time>2012-05-23T09:31:43Z</time>
      </trkpt>
      <trkpt lat="43.53205" lon="6.93484">
        <ele>5.91</ele>
        <time>2012-05-23T09:31:46Z</time>
      </trkpt>
      <trkpt lat="43.53302" lon="6.93486">
        <ele>6.87</ele>
        <time>2012-05-23T09:32:06Z</time>
      </trkpt>
      <trkpt lat="43.53391" lon="6.93488">
        <ele>3.98</ele>
        <time>2012-05-23T09:32:19Z</time>
      </trkpt>
      <trkpt lat="43.53544" lon="6.93488">
        <ele>1.1</ele>
        <time>2012-05-23T09:32:38Z</time>
      </trkpt>
      <trkpt lat="43.53664" lon="6.93492">
        <ele>1.58</ele>
        <time>2012-05-23T09:32:55Z</time>
      </trkpt>
      <trkpt lat="43.53699" lon="6.93492">
        <ele>2.06</ele>
        <time>2012-05-23T09:33:01Z</time>
      </trkpt>
      <trkpt lat="43.53721" lon="6.93501">
        <ele>2.06</ele>
        <time>2012-05-23T09:33:05Z</time>
      </trkpt>
      <trkpt lat="43.53735" lon="6.93501">
        <ele>2.54</ele>
        <time>2012-05-23T09:33:08Z</time>
      </trkpt>
      <trkpt lat="43.53804" lon="6.93505">
        <ele>3.02</ele>
        <time>2012-05-23T09:33:23Z</time>
      </trkpt>
      <trkpt lat="43.53893" lon="6.93545">
        <ele>5.42</ele>
        <time>2012-05-23T09:33:46Z</time>
      </trkpt>
      <trkpt lat="43.53981" lon="6.93585">
        <ele>5.42</ele>
        <time>2012-05-23T09:34:07Z</time>
      </trkpt>
      <trkpt lat="43.5399" lon="6.93591">
        <ele>5.42</ele>
        <time>2012-05-23T09:34:09Z</time>
      </trkpt>
      <trkpt lat="43.54021" lon="6.93603">
        <ele>4.46</ele>
        <time>2012-05-23T09:34:17Z</time>
      </trkpt>
      <trkpt lat="43.54024" lon="6.93617">
        <ele>3.98</ele>
        <time>2012-05-23T09:34:19Z</time>
      </trkpt>
      <trkpt lat="43.54045" lon="6.93738">
        <ele>2.06</ele>
        <time>2012-05-23T09:34:36Z</time>
      </trkpt>
      <trkpt lat="43.54052" lon="6.93778">
        <ele>1.1</ele>
        <time>2012-05-23T09:34:43Z</time>
      </trkpt>
      <trkpt lat="43.54058" lon="6.93803">
        <ele>1.1</ele>
        <time>2012-05-23T09:34:48Z</time>
      </trkpt>
      <trkpt lat="43.54063" lon="6.93835">
        <ele>0.14</ele>
        <time>2012-05-23T09:34:56Z</time>
      </trkpt>
      <trkpt lat="43.54066" lon="6.9384">
        <ele>0.14</ele>
        <time>2012-05-23T09:34:59Z</time>
      </trkpt>
      <trkpt lat="43.54069" lon="6.93868">
        <ele>0.14</ele>
        <time>2012-05-23T09:35:08Z</time>
      </trkpt>
      <trkpt lat="43.54073" lon="6.93869">
        <ele>0.62</ele>
        <time>2012-05-23T09:35:12Z</time>
      </trkpt>
      <trkpt lat="43.54055" lon="6.9379">
        <ele>0.62</ele>
        <time>2012-05-23T09:35:28Z</time>
      </trkpt>
      <trkpt lat="43.54052" lon="6.93772">
        <ele>1.1</ele>
        <time>2012-05-23T09:35:31Z</time>
      </trkpt>
      <trkpt lat="43.5404" lon="6.93699">
        <ele>1.58</ele>
        <time>2012-05-23T09:35:45Z</time>
      </trkpt>
      <trkpt lat="43.54022" lon="6.93595">
        <ele>3.5</ele>
        <time>2012-05-23T09:36:05Z</time>
      </trkpt>
      <trkpt lat="43.54032" lon="6.93597">
        <ele>3.98</ele>
        <time>2012-05-23T09:36:10Z</time>
      </trkpt>
      <trkpt lat="43.54087" lon="6.93617">
        <ele>3.5</ele>
        <time>2012-05-23T09:36:26Z</time>
      </trkpt>
      <trkpt lat="43.54088" lon="6.93618">
        <ele>3.02</ele>
        <time>2012-05-23T09:36:27Z</time>
      </trkpt>
      <trkpt lat="43.54095" lon="6.93629">
        <ele>3.02</ele>
        <time>2012-05-23T09:36:34Z</time>
      </trkpt>
      <trkpt lat="43.54101" lon="6.93627">
        <ele>3.02</ele>
        <time>2012-05-23T09:36:37Z</time>
      </trkpt>
      <trkpt lat="43.54108" lon="6.93631">
        <ele>3.5</ele>
        <time>2012-05-23T09:36:41Z</time>
      </trkpt>
      <trkpt lat="43.5414" lon="6.93644">
        <ele>3.02</ele>
        <time>2012-05-23T09:36:56Z</time>
      </trkpt>
      <trkpt lat="43.54154" lon="6.93653">
        <ele>3.02</ele>
        <time>2012-05-23T09:37:02Z</time>
      </trkpt>
      <trkpt lat="43.54164" lon="6.93709">
        <ele>3.02</ele>
        <time>2012-05-23T09:37:15Z</time>
      </trkpt>
      <trkpt lat="43.54176" lon="6.93771">
        <ele>2.06</ele>
        <time>2012-05-23T09:37:25Z</time>
      </trkpt>
      <trkpt lat="43.54178" lon="6.93795">
        <ele>1.58</ele>
        <time>2012-05-23T09:37:29Z</time>
      </trkpt>
      <trkpt lat="43.54201" lon="6.93896">
        <ele>0.62</ele>
        <time>2012-05-23T09:37:45Z</time>
      </trkpt>
      <trkpt lat="43.54205" lon="6.9393">
        <ele>0.62</ele>
        <time>2012-05-23T09:37:50Z</time>
      </trkpt>
      <trkpt lat="43.54229" lon="6.94047">
        <ele>0.62</ele>
        <time>2012-05-23T09:38:09Z</time>
      </trkpt>
      <trkpt lat="43.54253" lon="6.94163">
        <ele>1.1</ele>
        <time>2012-05-23T09:38:29Z</time>
      </trkpt>
      <trkpt lat="43.54264" lon="6.94229">
        <ele>1.1</ele>
        <time>2012-05-23T09:38:42Z</time>
      </trkpt>
    </trkseg>
  </trk>
</gpx>